<?xml version="1.0" encoding="UTF-8" standalone="no" ?>
<gpx xmlns="http://www.topografix.com/GPX/1/1" xmlns:xsi="http://www.w3.org/2001/XMLSchema-instance" xsi:schemaLocation="http://www.topografix.com/GPX/1/1 http://www.topografix.com/GPX/1/1/gpx.xsd" version="1.1" creator="VisuGPX - https://www.visugpx.com">
  <metadata>
    <name>tour de toulouse</name>
  </metadata>
  <trk>
    <name><![CDATA[16-mai-2020-09-56-40]]></name>
    <extensions>
      <line xmlns="http://www.topografix.com/GPX/gpx_style/0/2">
        <color>0000FF</color>
        <width>4</width>
      </line>
    </extensions>
    <trkseg>
      <trkpt lat="43.60714" lon="1.42892">
        <ele>135.1</ele>
        <time>2020-05-16T08:47:24.000Z</time>
      </trkpt>
      <trkpt lat="43.60709" lon="1.42906">
        <ele>134.6</ele>
        <time>2020-05-16T08:47:20.000Z</time>
      </trkpt>
      <trkpt lat="43.60705" lon="1.42918">
        <ele>134.2</ele>
        <time>2020-05-16T08:47:16.000Z</time>
      </trkpt>
      <trkpt lat="43.607" lon="1.42931">
        <ele>134.4</ele>
        <time>2020-05-16T08:47:12.000Z</time>
      </trkpt>
      <trkpt lat="43.60696" lon="1.42945">
        <ele>135.1</ele>
        <time>2020-05-16T08:47:07.000Z</time>
      </trkpt>
      <trkpt lat="43.60691" lon="1.42957">
        <ele>135.2</ele>
        <time>2020-05-16T08:47:04.000Z</time>
      </trkpt>
      <trkpt lat="43.60686" lon="1.42971">
        <ele>135.1</ele>
        <time>2020-05-16T08:47:00.000Z</time>
      </trkpt>
      <trkpt lat="43.6068" lon="1.42984">
        <ele>134.4</ele>
        <time>2020-05-16T08:46:56.000Z</time>
      </trkpt>
      <trkpt lat="43.60676" lon="1.42996">
        <ele>134</ele>
        <time>2020-05-16T08:46:52.000Z</time>
      </trkpt>
      <trkpt lat="43.6067" lon="1.43007">
        <ele>134</ele>
        <time>2020-05-16T08:46:47.000Z</time>
      </trkpt>
      <trkpt lat="43.60665" lon="1.43018">
        <ele>134.9</ele>
        <time>2020-05-16T08:46:42.000Z</time>
      </trkpt>
      <trkpt lat="43.60657" lon="1.43032">
        <ele>135.4</ele>
        <time>2020-05-16T08:46:39.000Z</time>
      </trkpt>
      <trkpt lat="43.60652" lon="1.43047">
        <ele>134.9</ele>
        <time>2020-05-16T08:46:34.000Z</time>
      </trkpt>
      <trkpt lat="43.60654" lon="1.4306">
        <ele>135.2</ele>
        <time>2020-05-16T08:46:30.000Z</time>
      </trkpt>
      <trkpt lat="43.60655" lon="1.43075">
        <ele>135.2</ele>
        <time>2020-05-16T08:46:26.000Z</time>
      </trkpt>
      <trkpt lat="43.6065" lon="1.43088">
        <ele>135</ele>
        <time>2020-05-16T08:46:21.000Z</time>
      </trkpt>
      <trkpt lat="43.60647" lon="1.431">
        <ele>135.4</ele>
        <time>2020-05-16T08:46:17.000Z</time>
      </trkpt>
      <trkpt lat="43.60642" lon="1.43116">
        <ele>136.2</ele>
        <time>2020-05-16T08:46:13.000Z</time>
      </trkpt>
      <trkpt lat="43.60638" lon="1.43127">
        <ele>136.5</ele>
        <time>2020-05-16T08:46:10.000Z</time>
      </trkpt>
      <trkpt lat="43.60632" lon="1.43139">
        <ele>136</ele>
        <time>2020-05-16T08:46:06.000Z</time>
      </trkpt>
      <trkpt lat="43.60628" lon="1.43152">
        <ele>135.3</ele>
        <time>2020-05-16T08:46:02.000Z</time>
      </trkpt>
      <trkpt lat="43.60626" lon="1.43167">
        <ele>135.1</ele>
        <time>2020-05-16T08:45:58.000Z</time>
      </trkpt>
      <trkpt lat="43.60621" lon="1.43181">
        <ele>135.9</ele>
        <time>2020-05-16T08:45:55.000Z</time>
      </trkpt>
      <trkpt lat="43.60615" lon="1.43192">
        <ele>136.8</ele>
        <time>2020-05-16T08:45:49.000Z</time>
      </trkpt>
      <trkpt lat="43.60609" lon="1.43202">
        <ele>136.7</ele>
        <time>2020-05-16T08:45:45.000Z</time>
      </trkpt>
      <trkpt lat="43.60603" lon="1.43216">
        <ele>135.8</ele>
        <time>2020-05-16T08:45:41.000Z</time>
      </trkpt>
      <trkpt lat="43.60598" lon="1.43227">
        <ele>135.4</ele>
        <time>2020-05-16T08:45:37.000Z</time>
      </trkpt>
      <trkpt lat="43.60592" lon="1.43238">
        <ele>135.4</ele>
        <time>2020-05-16T08:45:33.000Z</time>
      </trkpt>
      <trkpt lat="43.60586" lon="1.43248">
        <ele>135.9</ele>
        <time>2020-05-16T08:45:30.000Z</time>
      </trkpt>
      <trkpt lat="43.6058" lon="1.4326">
        <ele>136.1</ele>
        <time>2020-05-16T08:45:26.000Z</time>
      </trkpt>
      <trkpt lat="43.60576" lon="1.43272">
        <ele>135.9</ele>
        <time>2020-05-16T08:45:22.000Z</time>
      </trkpt>
      <trkpt lat="43.60572" lon="1.43285">
        <ele>135.5</ele>
        <time>2020-05-16T08:45:17.000Z</time>
      </trkpt>
      <trkpt lat="43.60566" lon="1.43297">
        <ele>134.9</ele>
        <time>2020-05-16T08:45:14.000Z</time>
      </trkpt>
      <trkpt lat="43.6056" lon="1.43311">
        <ele>135</ele>
        <time>2020-05-16T08:45:09.000Z</time>
      </trkpt>
      <trkpt lat="43.60555" lon="1.43323">
        <ele>135.9</ele>
        <time>2020-05-16T08:45:05.000Z</time>
      </trkpt>
      <trkpt lat="43.60549" lon="1.43337">
        <ele>136.4</ele>
        <time>2020-05-16T08:45:01.000Z</time>
      </trkpt>
      <trkpt lat="43.60542" lon="1.43348">
        <ele>135.5</ele>
        <time>2020-05-16T08:44:57.000Z</time>
      </trkpt>
      <trkpt lat="43.60536" lon="1.43359">
        <ele>134.5</ele>
        <time>2020-05-16T08:44:53.000Z</time>
      </trkpt>
      <trkpt lat="43.6053" lon="1.43369">
        <ele>133.9</ele>
        <time>2020-05-16T08:44:49.000Z</time>
      </trkpt>
      <trkpt lat="43.60525" lon="1.43382">
        <ele>134.8</ele>
        <time>2020-05-16T08:44:45.000Z</time>
      </trkpt>
      <trkpt lat="43.60522" lon="1.43396">
        <ele>136</ele>
        <time>2020-05-16T08:44:36.000Z</time>
      </trkpt>
      <trkpt lat="43.60514" lon="1.43406">
        <ele>136</ele>
        <time>2020-05-16T08:44:33.000Z</time>
      </trkpt>
      <trkpt lat="43.60508" lon="1.43414">
        <ele>134.9</ele>
        <time>2020-05-16T08:44:31.000Z</time>
      </trkpt>
      <trkpt lat="43.60499" lon="1.43427">
        <ele>134.6</ele>
        <time>2020-05-16T08:44:28.000Z</time>
      </trkpt>
      <trkpt lat="43.60493" lon="1.43439">
        <ele>135.7</ele>
        <time>2020-05-16T08:44:24.000Z</time>
      </trkpt>
      <trkpt lat="43.60487" lon="1.4345">
        <ele>136</ele>
        <time>2020-05-16T08:44:16.000Z</time>
      </trkpt>
      <trkpt lat="43.60477" lon="1.43454">
        <ele>135.6</ele>
        <time>2020-05-16T08:44:09.000Z</time>
      </trkpt>
      <trkpt lat="43.60468" lon="1.43456">
        <ele>135.6</ele>
        <time>2020-05-16T08:44:04.000Z</time>
      </trkpt>
      <trkpt lat="43.60458" lon="1.43458">
        <ele>136.2</ele>
        <time>2020-05-16T08:43:59.000Z</time>
      </trkpt>
      <trkpt lat="43.60448" lon="1.43457">
        <ele>136.1</ele>
        <time>2020-05-16T08:43:55.000Z</time>
      </trkpt>
      <trkpt lat="43.60438" lon="1.43456">
        <ele>136.6</ele>
        <time>2020-05-16T08:43:51.000Z</time>
      </trkpt>
      <trkpt lat="43.60429" lon="1.43453">
        <ele>136.9</ele>
        <time>2020-05-16T08:43:47.000Z</time>
      </trkpt>
      <trkpt lat="43.60419" lon="1.4345">
        <ele>137.5</ele>
        <time>2020-05-16T08:43:43.000Z</time>
      </trkpt>
      <trkpt lat="43.6041" lon="1.43446">
        <ele>137.9</ele>
        <time>2020-05-16T08:43:40.000Z</time>
      </trkpt>
      <trkpt lat="43.604" lon="1.43443">
        <ele>138.8</ele>
        <time>2020-05-16T08:43:36.000Z</time>
      </trkpt>
      <trkpt lat="43.60389" lon="1.43439">
        <ele>139.8</ele>
        <time>2020-05-16T08:43:31.000Z</time>
      </trkpt>
      <trkpt lat="43.6038" lon="1.43439">
        <ele>138.6</ele>
        <time>2020-05-16T08:43:26.000Z</time>
      </trkpt>
      <trkpt lat="43.60372" lon="1.43449">
        <ele>138.5</ele>
        <time>2020-05-16T08:43:22.000Z</time>
      </trkpt>
      <trkpt lat="43.60365" lon="1.4346">
        <ele>138.9</ele>
        <time>2020-05-16T08:43:17.000Z</time>
      </trkpt>
      <trkpt lat="43.60359" lon="1.43471">
        <ele>139.3</ele>
        <time>2020-05-16T08:43:11.000Z</time>
      </trkpt>
      <trkpt lat="43.60354" lon="1.43482">
        <ele>138.4</ele>
        <time>2020-05-16T08:43:07.000Z</time>
      </trkpt>
      <trkpt lat="43.6035" lon="1.43495">
        <ele>137.9</ele>
        <time>2020-05-16T08:43:03.000Z</time>
      </trkpt>
      <trkpt lat="43.60349" lon="1.43508">
        <ele>138.2</ele>
        <time>2020-05-16T08:42:59.000Z</time>
      </trkpt>
      <trkpt lat="43.60344" lon="1.43519">
        <ele>137.5</ele>
        <time>2020-05-16T08:42:43.000Z</time>
      </trkpt>
      <trkpt lat="43.60337" lon="1.4351">
        <ele>135.5</ele>
        <time>2020-05-16T08:42:25.000Z</time>
      </trkpt>
      <trkpt lat="43.60332" lon="1.43522">
        <ele>135.5</ele>
        <time>2020-05-16T08:42:22.000Z</time>
      </trkpt>
      <trkpt lat="43.60327" lon="1.43534">
        <ele>135.9</ele>
        <time>2020-05-16T08:42:19.000Z</time>
      </trkpt>
      <trkpt lat="43.6032" lon="1.43548">
        <ele>136</ele>
        <time>2020-05-16T08:42:13.000Z</time>
      </trkpt>
      <trkpt lat="43.60313" lon="1.43558">
        <ele>135.6</ele>
        <time>2020-05-16T08:42:08.000Z</time>
      </trkpt>
      <trkpt lat="43.60311" lon="1.4357">
        <ele>136.5</ele>
        <time>2020-05-16T08:42:05.000Z</time>
      </trkpt>
      <trkpt lat="43.60309" lon="1.43584">
        <ele>137.7</ele>
        <time>2020-05-16T08:42:02.000Z</time>
      </trkpt>
      <trkpt lat="43.60305" lon="1.43596">
        <ele>138.7</ele>
        <time>2020-05-16T08:41:59.000Z</time>
      </trkpt>
      <trkpt lat="43.60298" lon="1.43608">
        <ele>139</ele>
        <time>2020-05-16T08:41:54.000Z</time>
      </trkpt>
      <trkpt lat="43.60292" lon="1.43619">
        <ele>138.9</ele>
        <time>2020-05-16T08:41:50.000Z</time>
      </trkpt>
      <trkpt lat="43.60285" lon="1.4363">
        <ele>139.6</ele>
        <time>2020-05-16T08:41:46.000Z</time>
      </trkpt>
      <trkpt lat="43.60278" lon="1.4364">
        <ele>141</ele>
        <time>2020-05-16T08:41:42.000Z</time>
      </trkpt>
      <trkpt lat="43.60271" lon="1.4365">
        <ele>139.5</ele>
        <time>2020-05-16T08:41:37.000Z</time>
      </trkpt>
      <trkpt lat="43.60265" lon="1.43662">
        <ele>139.2</ele>
        <time>2020-05-16T08:41:33.000Z</time>
      </trkpt>
      <trkpt lat="43.60259" lon="1.43673">
        <ele>139.4</ele>
        <time>2020-05-16T08:41:29.000Z</time>
      </trkpt>
      <trkpt lat="43.60252" lon="1.43683">
        <ele>139.9</ele>
        <time>2020-05-16T08:41:25.000Z</time>
      </trkpt>
      <trkpt lat="43.60246" lon="1.43694">
        <ele>139.8</ele>
        <time>2020-05-16T08:41:21.000Z</time>
      </trkpt>
      <trkpt lat="43.60241" lon="1.43705">
        <ele>139.3</ele>
        <time>2020-05-16T08:41:17.000Z</time>
      </trkpt>
      <trkpt lat="43.60234" lon="1.43717">
        <ele>139.7</ele>
        <time>2020-05-16T08:41:12.000Z</time>
      </trkpt>
      <trkpt lat="43.60227" lon="1.43727">
        <ele>140.3</ele>
        <time>2020-05-16T08:41:08.000Z</time>
      </trkpt>
      <trkpt lat="43.60222" lon="1.43737">
        <ele>140.5</ele>
        <time>2020-05-16T08:41:04.000Z</time>
      </trkpt>
      <trkpt lat="43.60216" lon="1.43748">
        <ele>139.4</ele>
        <time>2020-05-16T08:41:00.000Z</time>
      </trkpt>
      <trkpt lat="43.6021" lon="1.43759">
        <ele>139</ele>
        <time>2020-05-16T08:40:56.000Z</time>
      </trkpt>
      <trkpt lat="43.60202" lon="1.43768">
        <ele>138.9</ele>
        <time>2020-05-16T08:40:52.000Z</time>
      </trkpt>
      <trkpt lat="43.60195" lon="1.43776">
        <ele>139.7</ele>
        <time>2020-05-16T08:40:48.000Z</time>
      </trkpt>
      <trkpt lat="43.60188" lon="1.43786">
        <ele>139</ele>
        <time>2020-05-16T08:40:44.000Z</time>
      </trkpt>
      <trkpt lat="43.6018" lon="1.43797">
        <ele>138.1</ele>
        <time>2020-05-16T08:40:40.000Z</time>
      </trkpt>
      <trkpt lat="43.60173" lon="1.43805">
        <ele>137.3</ele>
        <time>2020-05-16T08:40:36.000Z</time>
      </trkpt>
      <trkpt lat="43.60167" lon="1.43815">
        <ele>137.8</ele>
        <time>2020-05-16T08:40:31.000Z</time>
      </trkpt>
      <trkpt lat="43.60159" lon="1.43824">
        <ele>137.6</ele>
        <time>2020-05-16T08:40:27.000Z</time>
      </trkpt>
      <trkpt lat="43.60152" lon="1.43835">
        <ele>136.8</ele>
        <time>2020-05-16T08:40:23.000Z</time>
      </trkpt>
      <trkpt lat="43.60153" lon="1.43849">
        <ele>136.8</ele>
        <time>2020-05-16T08:40:17.000Z</time>
      </trkpt>
      <trkpt lat="43.60161" lon="1.4386">
        <ele>138</ele>
        <time>2020-05-16T08:40:13.000Z</time>
      </trkpt>
      <trkpt lat="43.60169" lon="1.4387">
        <ele>138.7</ele>
        <time>2020-05-16T08:40:09.000Z</time>
      </trkpt>
      <trkpt lat="43.60174" lon="1.4388">
        <ele>138.8</ele>
        <time>2020-05-16T08:40:05.000Z</time>
      </trkpt>
      <trkpt lat="43.6018" lon="1.43892">
        <ele>139.5</ele>
        <time>2020-05-16T08:40:01.000Z</time>
      </trkpt>
      <trkpt lat="43.60182" lon="1.43905">
        <ele>140.3</ele>
        <time>2020-05-16T08:39:56.000Z</time>
      </trkpt>
      <trkpt lat="43.60174" lon="1.43915">
        <ele>139.3</ele>
        <time>2020-05-16T08:39:52.000Z</time>
      </trkpt>
      <trkpt lat="43.60167" lon="1.43926">
        <ele>139.4</ele>
        <time>2020-05-16T08:39:48.000Z</time>
      </trkpt>
      <trkpt lat="43.6016" lon="1.43938">
        <ele>140.3</ele>
        <time>2020-05-16T08:39:44.000Z</time>
      </trkpt>
      <trkpt lat="43.60153" lon="1.4395">
        <ele>140.6</ele>
        <time>2020-05-16T08:39:40.000Z</time>
      </trkpt>
      <trkpt lat="43.60145" lon="1.43958">
        <ele>140.9</ele>
        <time>2020-05-16T08:39:37.000Z</time>
      </trkpt>
      <trkpt lat="43.60136" lon="1.43966">
        <ele>141.9</ele>
        <time>2020-05-16T08:39:34.000Z</time>
      </trkpt>
      <trkpt lat="43.60127" lon="1.4397">
        <ele>142.3</ele>
        <time>2020-05-16T08:39:31.000Z</time>
      </trkpt>
      <trkpt lat="43.60118" lon="1.43967">
        <ele>142</ele>
        <time>2020-05-16T08:39:28.000Z</time>
      </trkpt>
      <trkpt lat="43.60113" lon="1.43954">
        <ele>141.8</ele>
        <time>2020-05-16T08:39:22.000Z</time>
      </trkpt>
      <trkpt lat="43.60107" lon="1.43944">
        <ele>141.9</ele>
        <time>2020-05-16T08:39:18.000Z</time>
      </trkpt>
      <trkpt lat="43.601" lon="1.43933">
        <ele>139.4</ele>
        <time>2020-05-16T08:39:14.000Z</time>
      </trkpt>
      <trkpt lat="43.60093" lon="1.43927">
        <ele>138.4</ele>
        <time>2020-05-16T08:39:08.000Z</time>
      </trkpt>
      <trkpt lat="43.60084" lon="1.43931">
        <ele>139.6</ele>
        <time>2020-05-16T08:39:04.000Z</time>
      </trkpt>
      <trkpt lat="43.60073" lon="1.43934">
        <ele>138.2</ele>
        <time>2020-05-16T08:39:02.000Z</time>
      </trkpt>
      <trkpt lat="43.60065" lon="1.43942">
        <ele>137.7</ele>
        <time>2020-05-16T08:38:58.000Z</time>
      </trkpt>
      <trkpt lat="43.60057" lon="1.4395">
        <ele>137.6</ele>
        <time>2020-05-16T08:38:54.000Z</time>
      </trkpt>
      <trkpt lat="43.6005" lon="1.43964">
        <ele>139.5</ele>
        <time>2020-05-16T08:38:49.000Z</time>
      </trkpt>
      <trkpt lat="43.60041" lon="1.43969">
        <ele>137.8</ele>
        <time>2020-05-16T08:38:45.000Z</time>
      </trkpt>
      <trkpt lat="43.60032" lon="1.43975">
        <ele>136.1</ele>
        <time>2020-05-16T08:38:40.000Z</time>
      </trkpt>
      <trkpt lat="43.60025" lon="1.43984">
        <ele>137.4</ele>
        <time>2020-05-16T08:38:36.000Z</time>
      </trkpt>
      <trkpt lat="43.60018" lon="1.43993">
        <ele>138.3</ele>
        <time>2020-05-16T08:38:32.000Z</time>
      </trkpt>
      <trkpt lat="43.60009" lon="1.43999">
        <ele>136.8</ele>
        <time>2020-05-16T08:38:29.000Z</time>
      </trkpt>
      <trkpt lat="43.6" lon="1.44009">
        <ele>137.2</ele>
        <time>2020-05-16T08:38:25.000Z</time>
      </trkpt>
      <trkpt lat="43.59994" lon="1.44021">
        <ele>139.8</ele>
        <time>2020-05-16T08:38:21.000Z</time>
      </trkpt>
      <trkpt lat="43.59986" lon="1.4403">
        <ele>139.4</ele>
        <time>2020-05-16T08:38:16.000Z</time>
      </trkpt>
      <trkpt lat="43.59978" lon="1.4404">
        <ele>139.9</ele>
        <time>2020-05-16T08:38:11.000Z</time>
      </trkpt>
      <trkpt lat="43.59967" lon="1.44041">
        <ele>139</ele>
        <time>2020-05-16T08:38:06.000Z</time>
      </trkpt>
      <trkpt lat="43.59963" lon="1.44029">
        <ele>133.8</ele>
        <time>2020-05-16T08:38:01.000Z</time>
      </trkpt>
      <trkpt lat="43.59962" lon="1.44014">
        <ele>132.6</ele>
        <time>2020-05-16T08:37:57.000Z</time>
      </trkpt>
      <trkpt lat="43.5996" lon="1.44">
        <ele>132</ele>
        <time>2020-05-16T08:37:52.999Z</time>
      </trkpt>
      <trkpt lat="43.59958" lon="1.43987">
        <ele>132.5</ele>
        <time>2020-05-16T08:37:48.999Z</time>
      </trkpt>
      <trkpt lat="43.59955" lon="1.43975">
        <ele>132.9</ele>
        <time>2020-05-16T08:37:44.999Z</time>
      </trkpt>
      <trkpt lat="43.59953" lon="1.43962">
        <ele>133</ele>
        <time>2020-05-16T08:37:40.999Z</time>
      </trkpt>
      <trkpt lat="43.5995" lon="1.43949">
        <ele>133</ele>
        <time>2020-05-16T08:37:36.999Z</time>
      </trkpt>
      <trkpt lat="43.59947" lon="1.43936">
        <ele>133</ele>
        <time>2020-05-16T08:37:31.999Z</time>
      </trkpt>
      <trkpt lat="43.59944" lon="1.43922">
        <ele>133</ele>
        <time>2020-05-16T08:37:27.999Z</time>
      </trkpt>
      <trkpt lat="43.59941" lon="1.4391">
        <ele>133</ele>
        <time>2020-05-16T08:37:23.999Z</time>
      </trkpt>
      <trkpt lat="43.59938" lon="1.43895">
        <ele>133</ele>
        <time>2020-05-16T08:37:19.999Z</time>
      </trkpt>
      <trkpt lat="43.59937" lon="1.43881">
        <ele>133</ele>
        <time>2020-05-16T08:37:15.999Z</time>
      </trkpt>
      <trkpt lat="43.59936" lon="1.43868">
        <ele>133</ele>
        <time>2020-05-16T08:37:11.999Z</time>
      </trkpt>
      <trkpt lat="43.59933" lon="1.43856">
        <ele>133</ele>
        <time>2020-05-16T08:37:07.999Z</time>
      </trkpt>
      <trkpt lat="43.59932" lon="1.43841">
        <ele>133</ele>
        <time>2020-05-16T08:37:02.999Z</time>
      </trkpt>
      <trkpt lat="43.59929" lon="1.43828">
        <ele>133</ele>
        <time>2020-05-16T08:36:58.999Z</time>
      </trkpt>
      <trkpt lat="43.59926" lon="1.43813">
        <ele>133</ele>
        <time>2020-05-16T08:36:52.999Z</time>
      </trkpt>
      <trkpt lat="43.59919" lon="1.43803">
        <ele>133.2</ele>
        <time>2020-05-16T08:36:47.999Z</time>
      </trkpt>
      <trkpt lat="43.59909" lon="1.43796">
        <ele>133.8</ele>
        <time>2020-05-16T08:36:43.999Z</time>
      </trkpt>
      <trkpt lat="43.59905" lon="1.43784">
        <ele>134.9</ele>
        <time>2020-05-16T08:36:39.999Z</time>
      </trkpt>
      <trkpt lat="43.59897" lon="1.43775">
        <ele>136.1</ele>
        <time>2020-05-16T08:36:34.999Z</time>
      </trkpt>
      <trkpt lat="43.59888" lon="1.43772">
        <ele>137</ele>
        <time>2020-05-16T08:36:30.999Z</time>
      </trkpt>
      <trkpt lat="43.59878" lon="1.43767">
        <ele>137.7</ele>
        <time>2020-05-16T08:36:25.999Z</time>
      </trkpt>
      <trkpt lat="43.59867" lon="1.43765">
        <ele>137.9</ele>
        <time>2020-05-16T08:36:20.999Z</time>
      </trkpt>
      <trkpt lat="43.59857" lon="1.43761">
        <ele>138.5</ele>
        <time>2020-05-16T08:36:15.999Z</time>
      </trkpt>
      <trkpt lat="43.59846" lon="1.43757">
        <ele>138.8</ele>
        <time>2020-05-16T08:36:10.999Z</time>
      </trkpt>
      <trkpt lat="43.59837" lon="1.43752">
        <ele>139</ele>
        <time>2020-05-16T08:36:05.999Z</time>
      </trkpt>
      <trkpt lat="43.59827" lon="1.43748">
        <ele>138.6</ele>
        <time>2020-05-16T08:36:01.999Z</time>
      </trkpt>
      <trkpt lat="43.59817" lon="1.43743">
        <ele>138.4</ele>
        <time>2020-05-16T08:35:57.999Z</time>
      </trkpt>
      <trkpt lat="43.59808" lon="1.43741">
        <ele>138.1</ele>
        <time>2020-05-16T08:35:53.999Z</time>
      </trkpt>
      <trkpt lat="43.59798" lon="1.43737">
        <ele>138.4</ele>
        <time>2020-05-16T08:35:49.999Z</time>
      </trkpt>
      <trkpt lat="43.59788" lon="1.43732">
        <ele>138.9</ele>
        <time>2020-05-16T08:35:45.999Z</time>
      </trkpt>
      <trkpt lat="43.59779" lon="1.43728">
        <ele>139.4</ele>
        <time>2020-05-16T08:35:41.999Z</time>
      </trkpt>
      <trkpt lat="43.5977" lon="1.43725">
        <ele>138.9</ele>
        <time>2020-05-16T08:35:37.999Z</time>
      </trkpt>
      <trkpt lat="43.59759" lon="1.4372">
        <ele>138.1</ele>
        <time>2020-05-16T08:35:32.999Z</time>
      </trkpt>
      <trkpt lat="43.59751" lon="1.43715">
        <ele>137.6</ele>
        <time>2020-05-16T08:35:28.999Z</time>
      </trkpt>
      <trkpt lat="43.5974" lon="1.4371">
        <ele>137.7</ele>
        <time>2020-05-16T08:35:23.999Z</time>
      </trkpt>
      <trkpt lat="43.59731" lon="1.43705">
        <ele>138</ele>
        <time>2020-05-16T08:35:19.999Z</time>
      </trkpt>
      <trkpt lat="43.59721" lon="1.43701">
        <ele>138.3</ele>
        <time>2020-05-16T08:35:15.999Z</time>
      </trkpt>
      <trkpt lat="43.5971" lon="1.43697">
        <ele>138.3</ele>
        <time>2020-05-16T08:35:11.999Z</time>
      </trkpt>
      <trkpt lat="43.597" lon="1.43693">
        <ele>138.2</ele>
        <time>2020-05-16T08:35:06.999Z</time>
      </trkpt>
      <trkpt lat="43.59691" lon="1.43689">
        <ele>138</ele>
        <time>2020-05-16T08:35:02.999Z</time>
      </trkpt>
      <trkpt lat="43.59681" lon="1.43684">
        <ele>137.8</ele>
        <time>2020-05-16T08:34:58.999Z</time>
      </trkpt>
      <trkpt lat="43.59672" lon="1.43681">
        <ele>137.7</ele>
        <time>2020-05-16T08:34:54.999Z</time>
      </trkpt>
      <trkpt lat="43.59664" lon="1.43677">
        <ele>137.9</ele>
        <time>2020-05-16T08:34:50.999Z</time>
      </trkpt>
      <trkpt lat="43.59652" lon="1.43672">
        <ele>138.4</ele>
        <time>2020-05-16T08:34:46.999Z</time>
      </trkpt>
      <trkpt lat="43.59641" lon="1.4367">
        <ele>138.6</ele>
        <time>2020-05-16T08:34:42.999Z</time>
      </trkpt>
      <trkpt lat="43.59632" lon="1.43664">
        <ele>138.8</ele>
        <time>2020-05-16T08:34:38.999Z</time>
      </trkpt>
      <trkpt lat="43.59623" lon="1.43659">
        <ele>138.6</ele>
        <time>2020-05-16T08:34:34.999Z</time>
      </trkpt>
      <trkpt lat="43.59615" lon="1.43655">
        <ele>138.5</ele>
        <time>2020-05-16T08:34:30.999Z</time>
      </trkpt>
      <trkpt lat="43.59605" lon="1.43651">
        <ele>138.4</ele>
        <time>2020-05-16T08:34:25.999Z</time>
      </trkpt>
      <trkpt lat="43.59594" lon="1.43647">
        <ele>138.3</ele>
        <time>2020-05-16T08:34:20.999Z</time>
      </trkpt>
      <trkpt lat="43.59586" lon="1.43643">
        <ele>138.6</ele>
        <time>2020-05-16T08:34:16.999Z</time>
      </trkpt>
      <trkpt lat="43.59576" lon="1.43639">
        <ele>138.5</ele>
        <time>2020-05-16T08:34:12.999Z</time>
      </trkpt>
      <trkpt lat="43.59566" lon="1.43635">
        <ele>137.9</ele>
        <time>2020-05-16T08:34:08.999Z</time>
      </trkpt>
      <trkpt lat="43.59557" lon="1.4363">
        <ele>137.7</ele>
        <time>2020-05-16T08:34:04.999Z</time>
      </trkpt>
      <trkpt lat="43.59547" lon="1.43626">
        <ele>137.8</ele>
        <time>2020-05-16T08:34:00.999Z</time>
      </trkpt>
      <trkpt lat="43.59538" lon="1.43621">
        <ele>138.1</ele>
        <time>2020-05-16T08:33:56.999Z</time>
      </trkpt>
      <trkpt lat="43.59529" lon="1.43618">
        <ele>138.3</ele>
        <time>2020-05-16T08:33:52.999Z</time>
      </trkpt>
      <trkpt lat="43.5952" lon="1.43615">
        <ele>138.3</ele>
        <time>2020-05-16T08:33:48.999Z</time>
      </trkpt>
      <trkpt lat="43.5951" lon="1.43612">
        <ele>138.3</ele>
        <time>2020-05-16T08:33:44.999Z</time>
      </trkpt>
      <trkpt lat="43.59501" lon="1.4361">
        <ele>138.1</ele>
        <time>2020-05-16T08:33:40.999Z</time>
      </trkpt>
      <trkpt lat="43.59492" lon="1.43607">
        <ele>137.9</ele>
        <time>2020-05-16T08:33:35.999Z</time>
      </trkpt>
      <trkpt lat="43.59483" lon="1.43602">
        <ele>137.9</ele>
        <time>2020-05-16T08:33:31.999Z</time>
      </trkpt>
      <trkpt lat="43.59473" lon="1.43599">
        <ele>137.9</ele>
        <time>2020-05-16T08:33:27.999Z</time>
      </trkpt>
      <trkpt lat="43.59464" lon="1.43595">
        <ele>138.2</ele>
        <time>2020-05-16T08:33:23.999Z</time>
      </trkpt>
      <trkpt lat="43.59455" lon="1.4359">
        <ele>138.5</ele>
        <time>2020-05-16T08:33:19.999Z</time>
      </trkpt>
      <trkpt lat="43.59444" lon="1.43585">
        <ele>138.8</ele>
        <time>2020-05-16T08:33:15.999Z</time>
      </trkpt>
      <trkpt lat="43.59434" lon="1.4358">
        <ele>138.4</ele>
        <time>2020-05-16T08:33:11.999Z</time>
      </trkpt>
      <trkpt lat="43.59424" lon="1.43577">
        <ele>138</ele>
        <time>2020-05-16T08:33:07.999Z</time>
      </trkpt>
      <trkpt lat="43.59413" lon="1.43572">
        <ele>138.2</ele>
        <time>2020-05-16T08:33:03.999Z</time>
      </trkpt>
      <trkpt lat="43.59404" lon="1.43569">
        <ele>138.3</ele>
        <time>2020-05-16T08:32:59.999Z</time>
      </trkpt>
      <trkpt lat="43.59394" lon="1.43565">
        <ele>138.4</ele>
        <time>2020-05-16T08:32:55.999Z</time>
      </trkpt>
      <trkpt lat="43.59384" lon="1.43561">
        <ele>138.5</ele>
        <time>2020-05-16T08:32:51.999Z</time>
      </trkpt>
      <trkpt lat="43.59375" lon="1.43558">
        <ele>138.4</ele>
        <time>2020-05-16T08:32:47.999Z</time>
      </trkpt>
      <trkpt lat="43.59366" lon="1.43553">
        <ele>138.3</ele>
        <time>2020-05-16T08:32:44.999Z</time>
      </trkpt>
      <trkpt lat="43.59357" lon="1.43551">
        <ele>138.3</ele>
        <time>2020-05-16T08:32:41.999Z</time>
      </trkpt>
      <trkpt lat="43.59346" lon="1.43547">
        <ele>138.6</ele>
        <time>2020-05-16T08:32:38.999Z</time>
      </trkpt>
      <trkpt lat="43.59335" lon="1.43542">
        <ele>139</ele>
        <time>2020-05-16T08:32:35.999Z</time>
      </trkpt>
      <trkpt lat="43.59326" lon="1.43538">
        <ele>139.3</ele>
        <time>2020-05-16T08:32:31.999Z</time>
      </trkpt>
      <trkpt lat="43.59317" lon="1.43531">
        <ele>139.8</ele>
        <time>2020-05-16T08:32:25.999Z</time>
      </trkpt>
      <trkpt lat="43.59308" lon="1.43524">
        <ele>140.2</ele>
        <time>2020-05-16T08:32:18.999Z</time>
      </trkpt>
      <trkpt lat="43.59299" lon="1.43516">
        <ele>140.9</ele>
        <time>2020-05-16T08:32:14.999Z</time>
      </trkpt>
      <trkpt lat="43.59289" lon="1.43509">
        <ele>141.8</ele>
        <time>2020-05-16T08:32:09.999Z</time>
      </trkpt>
      <trkpt lat="43.59281" lon="1.43513">
        <ele>141.5</ele>
        <time>2020-05-16T08:32:03.999Z</time>
      </trkpt>
      <trkpt lat="43.59279" lon="1.43526">
        <ele>140.2</ele>
        <time>2020-05-16T08:31:59.999Z</time>
      </trkpt>
      <trkpt lat="43.59277" lon="1.4354">
        <ele>137.7</ele>
        <time>2020-05-16T08:31:55.999Z</time>
      </trkpt>
      <trkpt lat="43.59276" lon="1.43555">
        <ele>135</ele>
        <time>2020-05-16T08:31:51.999Z</time>
      </trkpt>
      <trkpt lat="43.59274" lon="1.43568">
        <ele>134</ele>
        <time>2020-05-16T08:31:46.999Z</time>
      </trkpt>
      <trkpt lat="43.59272" lon="1.43582">
        <ele>133.1</ele>
        <time>2020-05-16T08:31:41.999Z</time>
      </trkpt>
      <trkpt lat="43.59271" lon="1.43595">
        <ele>132.7</ele>
        <time>2020-05-16T08:31:37.999Z</time>
      </trkpt>
      <trkpt lat="43.5927" lon="1.43608">
        <ele>132.4</ele>
        <time>2020-05-16T08:31:33.999Z</time>
      </trkpt>
      <trkpt lat="43.59269" lon="1.43622">
        <ele>132.6</ele>
        <time>2020-05-16T08:31:29.999Z</time>
      </trkpt>
      <trkpt lat="43.59269" lon="1.43637">
        <ele>133</ele>
        <time>2020-05-16T08:31:25.999Z</time>
      </trkpt>
      <trkpt lat="43.59266" lon="1.43652">
        <ele>133</ele>
        <time>2020-05-16T08:31:20.999Z</time>
      </trkpt>
      <trkpt lat="43.59264" lon="1.43668">
        <ele>133</ele>
        <time>2020-05-16T08:31:15.999Z</time>
      </trkpt>
      <trkpt lat="43.59264" lon="1.43682">
        <ele>133</ele>
        <time>2020-05-16T08:31:11.999Z</time>
      </trkpt>
      <trkpt lat="43.59262" lon="1.43696">
        <ele>133</ele>
        <time>2020-05-16T08:31:07.999Z</time>
      </trkpt>
      <trkpt lat="43.59261" lon="1.4371">
        <ele>133</ele>
        <time>2020-05-16T08:31:03.999Z</time>
      </trkpt>
      <trkpt lat="43.59261" lon="1.43722">
        <ele>133</ele>
        <time>2020-05-16T08:30:59.999Z</time>
      </trkpt>
      <trkpt lat="43.59262" lon="1.43738">
        <ele>133</ele>
        <time>2020-05-16T08:30:55.999Z</time>
      </trkpt>
      <trkpt lat="43.59261" lon="1.43753">
        <ele>133</ele>
        <time>2020-05-16T08:30:50.999Z</time>
      </trkpt>
      <trkpt lat="43.59259" lon="1.43766">
        <ele>133</ele>
        <time>2020-05-16T08:30:46.999Z</time>
      </trkpt>
      <trkpt lat="43.59257" lon="1.43778">
        <ele>133</ele>
        <time>2020-05-16T08:30:42.999Z</time>
      </trkpt>
      <trkpt lat="43.59256" lon="1.43792">
        <ele>133</ele>
        <time>2020-05-16T08:30:38.999Z</time>
      </trkpt>
      <trkpt lat="43.59254" lon="1.43806">
        <ele>133</ele>
        <time>2020-05-16T08:30:33.999Z</time>
      </trkpt>
      <trkpt lat="43.59253" lon="1.43819">
        <ele>133</ele>
        <time>2020-05-16T08:30:28.999Z</time>
      </trkpt>
      <trkpt lat="43.59251" lon="1.43832">
        <ele>133</ele>
        <time>2020-05-16T08:30:23.999Z</time>
      </trkpt>
      <trkpt lat="43.59249" lon="1.43845">
        <ele>133.4</ele>
        <time>2020-05-16T08:30:19.999Z</time>
      </trkpt>
      <trkpt lat="43.59248" lon="1.43858">
        <ele>133.9</ele>
        <time>2020-05-16T08:30:15.999Z</time>
      </trkpt>
      <trkpt lat="43.59246" lon="1.43871">
        <ele>134.3</ele>
        <time>2020-05-16T08:30:11.999Z</time>
      </trkpt>
      <trkpt lat="43.59245" lon="1.43885">
        <ele>134.7</ele>
        <time>2020-05-16T08:30:07.999Z</time>
      </trkpt>
      <trkpt lat="43.59244" lon="1.43898">
        <ele>134.2</ele>
        <time>2020-05-16T08:30:03.999Z</time>
      </trkpt>
      <trkpt lat="43.59242" lon="1.43911">
        <ele>133.3</ele>
        <time>2020-05-16T08:29:59.999Z</time>
      </trkpt>
      <trkpt lat="43.59241" lon="1.43925">
        <ele>133.6</ele>
        <time>2020-05-16T08:29:55.999Z</time>
      </trkpt>
      <trkpt lat="43.5924" lon="1.43939">
        <ele>134.7</ele>
        <time>2020-05-16T08:29:51.999Z</time>
      </trkpt>
      <trkpt lat="43.59239" lon="1.43953">
        <ele>136.8</ele>
        <time>2020-05-16T08:29:47.999Z</time>
      </trkpt>
      <trkpt lat="43.59238" lon="1.43967">
        <ele>139.6</ele>
        <time>2020-05-16T08:29:43.999Z</time>
      </trkpt>
      <trkpt lat="43.59239" lon="1.43982">
        <ele>141</ele>
        <time>2020-05-16T08:29:38.999Z</time>
      </trkpt>
      <trkpt lat="43.59239" lon="1.43995">
        <ele>141.9</ele>
        <time>2020-05-16T08:29:33.999Z</time>
      </trkpt>
      <trkpt lat="43.59239" lon="1.44008">
        <ele>141.3</ele>
        <time>2020-05-16T08:29:29.999Z</time>
      </trkpt>
      <trkpt lat="43.59237" lon="1.44022">
        <ele>140</ele>
        <time>2020-05-16T08:29:25.999Z</time>
      </trkpt>
      <trkpt lat="43.59235" lon="1.44036">
        <ele>138.9</ele>
        <time>2020-05-16T08:29:21.999Z</time>
      </trkpt>
      <trkpt lat="43.59234" lon="1.44051">
        <ele>137.5</ele>
        <time>2020-05-16T08:29:17.999Z</time>
      </trkpt>
      <trkpt lat="43.59234" lon="1.44064">
        <ele>138.7</ele>
        <time>2020-05-16T08:29:13.999Z</time>
      </trkpt>
      <trkpt lat="43.59232" lon="1.44078">
        <ele>141.6</ele>
        <time>2020-05-16T08:29:09.999Z</time>
      </trkpt>
      <trkpt lat="43.59231" lon="1.44092">
        <ele>140.9</ele>
        <time>2020-05-16T08:29:05.999Z</time>
      </trkpt>
      <trkpt lat="43.59229" lon="1.44106">
        <ele>138.1</ele>
        <time>2020-05-16T08:29:01.999Z</time>
      </trkpt>
      <trkpt lat="43.59228" lon="1.44118">
        <ele>137.2</ele>
        <time>2020-05-16T08:28:57.999Z</time>
      </trkpt>
      <trkpt lat="43.59226" lon="1.44132">
        <ele>137.6</ele>
        <time>2020-05-16T08:28:53.999Z</time>
      </trkpt>
      <trkpt lat="43.59224" lon="1.44146">
        <ele>138.4</ele>
        <time>2020-05-16T08:28:49.999Z</time>
      </trkpt>
      <trkpt lat="43.59223" lon="1.4416">
        <ele>139.5</ele>
        <time>2020-05-16T08:28:45.999Z</time>
      </trkpt>
      <trkpt lat="43.59221" lon="1.44175">
        <ele>139.1</ele>
        <time>2020-05-16T08:28:41.999Z</time>
      </trkpt>
      <trkpt lat="43.59219" lon="1.44191">
        <ele>137.8</ele>
        <time>2020-05-16T08:28:37.999Z</time>
      </trkpt>
      <trkpt lat="43.5922" lon="1.44205">
        <ele>139.5</ele>
        <time>2020-05-16T08:28:33.999Z</time>
      </trkpt>
      <trkpt lat="43.59225" lon="1.44221">
        <ele>142.2</ele>
        <time>2020-05-16T08:28:29.999Z</time>
      </trkpt>
      <trkpt lat="43.5923" lon="1.44231">
        <ele>141.7</ele>
        <time>2020-05-16T08:28:26.999Z</time>
      </trkpt>
      <trkpt lat="43.59234" lon="1.44244">
        <ele>141.8</ele>
        <time>2020-05-16T08:28:23.999Z</time>
      </trkpt>
      <trkpt lat="43.59239" lon="1.44255">
        <ele>142</ele>
        <time>2020-05-16T08:28:19.999Z</time>
      </trkpt>
      <trkpt lat="43.59244" lon="1.44266">
        <ele>142.3</ele>
        <time>2020-05-16T08:28:15.999Z</time>
      </trkpt>
      <trkpt lat="43.59248" lon="1.4428">
        <ele>143</ele>
        <time>2020-05-16T08:28:11.999Z</time>
      </trkpt>
      <trkpt lat="43.59254" lon="1.44292">
        <ele>142.6</ele>
        <time>2020-05-16T08:28:07.999Z</time>
      </trkpt>
      <trkpt lat="43.59259" lon="1.44304">
        <ele>142.6</ele>
        <time>2020-05-16T08:28:02.999Z</time>
      </trkpt>
      <trkpt lat="43.59261" lon="1.44317">
        <ele>142.6</ele>
        <time>2020-05-16T08:27:58.999Z</time>
      </trkpt>
      <trkpt lat="43.59265" lon="1.44329">
        <ele>142.5</ele>
        <time>2020-05-16T08:27:54.999Z</time>
      </trkpt>
      <trkpt lat="43.59268" lon="1.44343">
        <ele>142.6</ele>
        <time>2020-05-16T08:27:48.999Z</time>
      </trkpt>
      <trkpt lat="43.59272" lon="1.44357">
        <ele>142.9</ele>
        <time>2020-05-16T08:27:43.999Z</time>
      </trkpt>
      <trkpt lat="43.59271" lon="1.4437">
        <ele>143</ele>
        <time>2020-05-16T08:27:39.999Z</time>
      </trkpt>
      <trkpt lat="43.5927" lon="1.44384">
        <ele>143</ele>
        <time>2020-05-16T08:27:35.999Z</time>
      </trkpt>
      <trkpt lat="43.59274" lon="1.44399">
        <ele>142.4</ele>
        <time>2020-05-16T08:27:31.999Z</time>
      </trkpt>
      <trkpt lat="43.59276" lon="1.44413">
        <ele>141.4</ele>
        <time>2020-05-16T08:27:27.999Z</time>
      </trkpt>
      <trkpt lat="43.59276" lon="1.44425">
        <ele>142</ele>
        <time>2020-05-16T08:27:23.999Z</time>
      </trkpt>
      <trkpt lat="43.59278" lon="1.44438">
        <ele>143.3</ele>
        <time>2020-05-16T08:27:19.999Z</time>
      </trkpt>
      <trkpt lat="43.59282" lon="1.44452">
        <ele>144</ele>
        <time>2020-05-16T08:27:15.999Z</time>
      </trkpt>
      <trkpt lat="43.59285" lon="1.44467">
        <ele>143.8</ele>
        <time>2020-05-16T08:27:11.999Z</time>
      </trkpt>
      <trkpt lat="43.59288" lon="1.44482">
        <ele>143.5</ele>
        <time>2020-05-16T08:27:07.999Z</time>
      </trkpt>
      <trkpt lat="43.59291" lon="1.44494">
        <ele>143.2</ele>
        <time>2020-05-16T08:27:04.999Z</time>
      </trkpt>
      <trkpt lat="43.59293" lon="1.44508">
        <ele>143.2</ele>
        <time>2020-05-16T08:27:01.999Z</time>
      </trkpt>
      <trkpt lat="43.59298" lon="1.44522">
        <ele>143.7</ele>
        <time>2020-05-16T08:26:56.999Z</time>
      </trkpt>
      <trkpt lat="43.59302" lon="1.44534">
        <ele>144</ele>
        <time>2020-05-16T08:26:52.999Z</time>
      </trkpt>
      <trkpt lat="43.59307" lon="1.44544">
        <ele>144</ele>
        <time>2020-05-16T08:26:49.999Z</time>
      </trkpt>
      <trkpt lat="43.59313" lon="1.44559">
        <ele>144</ele>
        <time>2020-05-16T08:26:45.999Z</time>
      </trkpt>
      <trkpt lat="43.59319" lon="1.44569">
        <ele>144</ele>
        <time>2020-05-16T08:26:40.999Z</time>
      </trkpt>
      <trkpt lat="43.59323" lon="1.4458">
        <ele>144</ele>
        <time>2020-05-16T08:26:35.999Z</time>
      </trkpt>
      <trkpt lat="43.59329" lon="1.4459">
        <ele>144</ele>
        <time>2020-05-16T08:26:31.999Z</time>
      </trkpt>
      <trkpt lat="43.59334" lon="1.44602">
        <ele>144</ele>
        <time>2020-05-16T08:26:26.999Z</time>
      </trkpt>
      <trkpt lat="43.59339" lon="1.44614">
        <ele>144</ele>
        <time>2020-05-16T08:26:22.999Z</time>
      </trkpt>
      <trkpt lat="43.59344" lon="1.44628">
        <ele>144</ele>
        <time>2020-05-16T08:26:18.999Z</time>
      </trkpt>
      <trkpt lat="43.59349" lon="1.44643">
        <ele>144</ele>
        <time>2020-05-16T08:26:13.999Z</time>
      </trkpt>
      <trkpt lat="43.59353" lon="1.44654">
        <ele>144</ele>
        <time>2020-05-16T08:26:08.999Z</time>
      </trkpt>
      <trkpt lat="43.59356" lon="1.44669">
        <ele>144</ele>
        <time>2020-05-16T08:26:04.999Z</time>
      </trkpt>
      <trkpt lat="43.59361" lon="1.44681">
        <ele>144</ele>
        <time>2020-05-16T08:26:00.999Z</time>
      </trkpt>
      <trkpt lat="43.59367" lon="1.44694">
        <ele>144</ele>
        <time>2020-05-16T08:25:55.999Z</time>
      </trkpt>
      <trkpt lat="43.59372" lon="1.44706">
        <ele>144.2</ele>
        <time>2020-05-16T08:25:51.999Z</time>
      </trkpt>
      <trkpt lat="43.59377" lon="1.44717">
        <ele>144.5</ele>
        <time>2020-05-16T08:25:47.999Z</time>
      </trkpt>
      <trkpt lat="43.59382" lon="1.4473">
        <ele>144.8</ele>
        <time>2020-05-16T08:25:43.999Z</time>
      </trkpt>
      <trkpt lat="43.59386" lon="1.44743">
        <ele>144.9</ele>
        <time>2020-05-16T08:25:40.999Z</time>
      </trkpt>
      <trkpt lat="43.59392" lon="1.44756">
        <ele>144.7</ele>
        <time>2020-05-16T08:25:36.999Z</time>
      </trkpt>
      <trkpt lat="43.59396" lon="1.44768">
        <ele>144.3</ele>
        <time>2020-05-16T08:25:32.999Z</time>
      </trkpt>
      <trkpt lat="43.59399" lon="1.4478">
        <ele>144</ele>
        <time>2020-05-16T08:25:29.999Z</time>
      </trkpt>
      <trkpt lat="43.59403" lon="1.44792">
        <ele>144.3</ele>
        <time>2020-05-16T08:25:25.999Z</time>
      </trkpt>
      <trkpt lat="43.59407" lon="1.44805">
        <ele>144.6</ele>
        <time>2020-05-16T08:25:21.999Z</time>
      </trkpt>
      <trkpt lat="43.59412" lon="1.44818">
        <ele>144.8</ele>
        <time>2020-05-16T08:25:17.999Z</time>
      </trkpt>
      <trkpt lat="43.59416" lon="1.4483">
        <ele>145</ele>
        <time>2020-05-16T08:25:13.999Z</time>
      </trkpt>
      <trkpt lat="43.59422" lon="1.44841">
        <ele>144.6</ele>
        <time>2020-05-16T08:25:07.999Z</time>
      </trkpt>
      <trkpt lat="43.59426" lon="1.44856">
        <ele>144.1</ele>
        <time>2020-05-16T08:25:02.999Z</time>
      </trkpt>
      <trkpt lat="43.59431" lon="1.44867">
        <ele>144</ele>
        <time>2020-05-16T08:24:58.999Z</time>
      </trkpt>
      <trkpt lat="43.59436" lon="1.44879">
        <ele>144</ele>
        <time>2020-05-16T08:24:54.999Z</time>
      </trkpt>
      <trkpt lat="43.59441" lon="1.4489">
        <ele>144</ele>
        <time>2020-05-16T08:24:50.999Z</time>
      </trkpt>
      <trkpt lat="43.59445" lon="1.44902">
        <ele>144</ele>
        <time>2020-05-16T08:24:46.999Z</time>
      </trkpt>
      <trkpt lat="43.59449" lon="1.44915">
        <ele>144</ele>
        <time>2020-05-16T08:24:42.999Z</time>
      </trkpt>
      <trkpt lat="43.59454" lon="1.44927">
        <ele>144</ele>
        <time>2020-05-16T08:24:38.999Z</time>
      </trkpt>
      <trkpt lat="43.59458" lon="1.4494">
        <ele>144</ele>
        <time>2020-05-16T08:24:34.999Z</time>
      </trkpt>
      <trkpt lat="43.59463" lon="1.44954">
        <ele>144.2</ele>
        <time>2020-05-16T08:24:30.999Z</time>
      </trkpt>
      <trkpt lat="43.59467" lon="1.44968">
        <ele>144.7</ele>
        <time>2020-05-16T08:24:26.999Z</time>
      </trkpt>
      <trkpt lat="43.59471" lon="1.44982">
        <ele>144.6</ele>
        <time>2020-05-16T08:24:22.999Z</time>
      </trkpt>
      <trkpt lat="43.59476" lon="1.44994">
        <ele>144.2</ele>
        <time>2020-05-16T08:24:18.999Z</time>
      </trkpt>
      <trkpt lat="43.59481" lon="1.45006">
        <ele>144.1</ele>
        <time>2020-05-16T08:24:15.999Z</time>
      </trkpt>
      <trkpt lat="43.59486" lon="1.45017">
        <ele>144.3</ele>
        <time>2020-05-16T08:24:11.999Z</time>
      </trkpt>
      <trkpt lat="43.59491" lon="1.4503">
        <ele>144.7</ele>
        <time>2020-05-16T08:24:07.999Z</time>
      </trkpt>
      <trkpt lat="43.59495" lon="1.45041">
        <ele>144.9</ele>
        <time>2020-05-16T08:24:04.999Z</time>
      </trkpt>
      <trkpt lat="43.595" lon="1.45052">
        <ele>145</ele>
        <time>2020-05-16T08:24:01.999Z</time>
      </trkpt>
      <trkpt lat="43.59505" lon="1.45065">
        <ele>144.9</ele>
        <time>2020-05-16T08:23:57.999Z</time>
      </trkpt>
      <trkpt lat="43.59508" lon="1.4508">
        <ele>145</ele>
        <time>2020-05-16T08:23:53.999Z</time>
      </trkpt>
      <trkpt lat="43.59512" lon="1.45094">
        <ele>145</ele>
        <time>2020-05-16T08:23:48.999Z</time>
      </trkpt>
      <trkpt lat="43.59515" lon="1.45108">
        <ele>145</ele>
        <time>2020-05-16T08:23:44.999Z</time>
      </trkpt>
      <trkpt lat="43.59518" lon="1.45122">
        <ele>145</ele>
        <time>2020-05-16T08:23:39.999Z</time>
      </trkpt>
      <trkpt lat="43.5952" lon="1.45135">
        <ele>145</ele>
        <time>2020-05-16T08:23:35.999Z</time>
      </trkpt>
      <trkpt lat="43.59518" lon="1.4515">
        <ele>145</ele>
        <time>2020-05-16T08:23:30.999Z</time>
      </trkpt>
      <trkpt lat="43.59513" lon="1.45162">
        <ele>145</ele>
        <time>2020-05-16T08:23:25.999Z</time>
      </trkpt>
      <trkpt lat="43.59505" lon="1.45174">
        <ele>145</ele>
        <time>2020-05-16T08:23:21.999Z</time>
      </trkpt>
      <trkpt lat="43.59499" lon="1.45185">
        <ele>145</ele>
        <time>2020-05-16T08:23:18.999Z</time>
      </trkpt>
      <trkpt lat="43.59494" lon="1.45196">
        <ele>145.2</ele>
        <time>2020-05-16T08:23:14.999Z</time>
      </trkpt>
      <trkpt lat="43.5949" lon="1.45207">
        <ele>145.5</ele>
        <time>2020-05-16T08:23:10.999Z</time>
      </trkpt>
      <trkpt lat="43.59486" lon="1.45218">
        <ele>145.5</ele>
        <time>2020-05-16T08:23:06.999Z</time>
      </trkpt>
      <trkpt lat="43.59482" lon="1.45232">
        <ele>145.2</ele>
        <time>2020-05-16T08:23:02.999Z</time>
      </trkpt>
      <trkpt lat="43.59479" lon="1.45245">
        <ele>145</ele>
        <time>2020-05-16T08:22:58.999Z</time>
      </trkpt>
      <trkpt lat="43.59477" lon="1.45259">
        <ele>145</ele>
        <time>2020-05-16T08:22:55.999Z</time>
      </trkpt>
      <trkpt lat="43.59475" lon="1.45273">
        <ele>145</ele>
        <time>2020-05-16T08:22:52.999Z</time>
      </trkpt>
      <trkpt lat="43.59473" lon="1.45288">
        <ele>145</ele>
        <time>2020-05-16T08:22:48.999Z</time>
      </trkpt>
      <trkpt lat="43.5947" lon="1.45302">
        <ele>145</ele>
        <time>2020-05-16T08:22:44.999Z</time>
      </trkpt>
      <trkpt lat="43.59469" lon="1.45316">
        <ele>145</ele>
        <time>2020-05-16T08:22:41.999Z</time>
      </trkpt>
      <trkpt lat="43.59471" lon="1.45331">
        <ele>145</ele>
        <time>2020-05-16T08:22:38.999Z</time>
      </trkpt>
      <trkpt lat="43.59475" lon="1.45344">
        <ele>145</ele>
        <time>2020-05-16T08:22:34.999Z</time>
      </trkpt>
      <trkpt lat="43.59481" lon="1.45356">
        <ele>145</ele>
        <time>2020-05-16T08:22:30.999Z</time>
      </trkpt>
      <trkpt lat="43.59488" lon="1.45365">
        <ele>145</ele>
        <time>2020-05-16T08:22:26.999Z</time>
      </trkpt>
      <trkpt lat="43.59496" lon="1.45373">
        <ele>145</ele>
        <time>2020-05-16T08:22:22.999Z</time>
      </trkpt>
      <trkpt lat="43.59504" lon="1.45381">
        <ele>145</ele>
        <time>2020-05-16T08:22:19.999Z</time>
      </trkpt>
      <trkpt lat="43.59512" lon="1.45388">
        <ele>145</ele>
        <time>2020-05-16T08:22:16.999Z</time>
      </trkpt>
      <trkpt lat="43.59521" lon="1.45398">
        <ele>145.2</ele>
        <time>2020-05-16T08:22:11.999Z</time>
      </trkpt>
      <trkpt lat="43.5953" lon="1.45404">
        <ele>145.5</ele>
        <time>2020-05-16T08:22:07.999Z</time>
      </trkpt>
      <trkpt lat="43.59539" lon="1.45409">
        <ele>145.5</ele>
        <time>2020-05-16T08:22:04.999Z</time>
      </trkpt>
      <trkpt lat="43.59548" lon="1.45413">
        <ele>145.3</ele>
        <time>2020-05-16T08:22:01.999Z</time>
      </trkpt>
      <trkpt lat="43.59558" lon="1.45416">
        <ele>145</ele>
        <time>2020-05-16T08:21:57.999Z</time>
      </trkpt>
      <trkpt lat="43.59568" lon="1.45424">
        <ele>145.3</ele>
        <time>2020-05-16T08:21:53.999Z</time>
      </trkpt>
      <trkpt lat="43.59577" lon="1.45429">
        <ele>145.4</ele>
        <time>2020-05-16T08:21:49.999Z</time>
      </trkpt>
      <trkpt lat="43.59585" lon="1.45436">
        <ele>145.7</ele>
        <time>2020-05-16T08:21:40.999Z</time>
      </trkpt>
      <trkpt lat="43.59582" lon="1.45447">
        <ele>146</ele>
        <time>2020-05-16T08:21:34.999Z</time>
      </trkpt>
      <trkpt lat="43.59579" lon="1.45459">
        <ele>146</ele>
        <time>2020-05-16T08:21:31.999Z</time>
      </trkpt>
      <trkpt lat="43.59575" lon="1.45472">
        <ele>146</ele>
        <time>2020-05-16T08:21:28.999Z</time>
      </trkpt>
      <trkpt lat="43.59573" lon="1.45484">
        <ele>146</ele>
        <time>2020-05-16T08:21:26.999Z</time>
      </trkpt>
      <trkpt lat="43.5957" lon="1.45497">
        <ele>146</ele>
        <time>2020-05-16T08:21:23.999Z</time>
      </trkpt>
      <trkpt lat="43.59568" lon="1.4551">
        <ele>146.4</ele>
        <time>2020-05-16T08:21:18.999Z</time>
      </trkpt>
      <trkpt lat="43.59569" lon="1.45524">
        <ele>146.9</ele>
        <time>2020-05-16T08:21:13.999Z</time>
      </trkpt>
      <trkpt lat="43.59573" lon="1.45537">
        <ele>147</ele>
        <time>2020-05-16T08:21:09.999Z</time>
      </trkpt>
      <trkpt lat="43.59576" lon="1.45549">
        <ele>147</ele>
        <time>2020-05-16T08:21:06.999Z</time>
      </trkpt>
      <trkpt lat="43.59583" lon="1.45561">
        <ele>146.8</ele>
        <time>2020-05-16T08:21:02.999Z</time>
      </trkpt>
      <trkpt lat="43.59592" lon="1.45569">
        <ele>146.5</ele>
        <time>2020-05-16T08:20:57.999Z</time>
      </trkpt>
      <trkpt lat="43.59603" lon="1.45573">
        <ele>146.4</ele>
        <time>2020-05-16T08:20:52.999Z</time>
      </trkpt>
      <trkpt lat="43.59612" lon="1.45573">
        <ele>146.4</ele>
        <time>2020-05-16T08:20:44.999Z</time>
      </trkpt>
      <trkpt lat="43.59622" lon="1.45573">
        <ele>146.4</ele>
        <time>2020-05-16T08:20:37.999Z</time>
      </trkpt>
      <trkpt lat="43.59632" lon="1.45575">
        <ele>146.3</ele>
        <time>2020-05-16T08:20:31.999Z</time>
      </trkpt>
      <trkpt lat="43.59644" lon="1.45579">
        <ele>146.3</ele>
        <time>2020-05-16T08:20:27.999Z</time>
      </trkpt>
      <trkpt lat="43.59654" lon="1.45581">
        <ele>146.6</ele>
        <time>2020-05-16T08:20:24.999Z</time>
      </trkpt>
      <trkpt lat="43.59664" lon="1.45583">
        <ele>146.9</ele>
        <time>2020-05-16T08:20:20.999Z</time>
      </trkpt>
      <trkpt lat="43.59675" lon="1.45587">
        <ele>146.9</ele>
        <time>2020-05-16T08:20:16.999Z</time>
      </trkpt>
      <trkpt lat="43.59684" lon="1.45593">
        <ele>146.7</ele>
        <time>2020-05-16T08:20:11.999Z</time>
      </trkpt>
      <trkpt lat="43.59694" lon="1.45597">
        <ele>146.5</ele>
        <time>2020-05-16T08:20:06.999Z</time>
      </trkpt>
      <trkpt lat="43.59703" lon="1.45602">
        <ele>146.5</ele>
        <time>2020-05-16T08:20:02.999Z</time>
      </trkpt>
      <trkpt lat="43.59715" lon="1.45604">
        <ele>146.8</ele>
        <time>2020-05-16T08:19:58.999Z</time>
      </trkpt>
      <trkpt lat="43.59725" lon="1.45603">
        <ele>147</ele>
        <time>2020-05-16T08:19:52.999Z</time>
      </trkpt>
      <trkpt lat="43.59737" lon="1.45604">
        <ele>147</ele>
        <time>2020-05-16T08:19:47.999Z</time>
      </trkpt>
      <trkpt lat="43.59746" lon="1.45605">
        <ele>147</ele>
        <time>2020-05-16T08:19:43.999Z</time>
      </trkpt>
      <trkpt lat="43.59755" lon="1.45606">
        <ele>147</ele>
        <time>2020-05-16T08:19:39.999Z</time>
      </trkpt>
      <trkpt lat="43.59766" lon="1.45607">
        <ele>147</ele>
        <time>2020-05-16T08:19:35.999Z</time>
      </trkpt>
      <trkpt lat="43.59776" lon="1.45609">
        <ele>147</ele>
        <time>2020-05-16T08:19:32.999Z</time>
      </trkpt>
      <trkpt lat="43.59787" lon="1.45611">
        <ele>146.7</ele>
        <time>2020-05-16T08:19:28.999Z</time>
      </trkpt>
      <trkpt lat="43.59797" lon="1.45612">
        <ele>146.3</ele>
        <time>2020-05-16T08:19:25.999Z</time>
      </trkpt>
      <trkpt lat="43.59809" lon="1.45614">
        <ele>146</ele>
        <time>2020-05-16T08:19:21.999Z</time>
      </trkpt>
      <trkpt lat="43.59819" lon="1.45616">
        <ele>146</ele>
        <time>2020-05-16T08:19:17.999Z</time>
      </trkpt>
      <trkpt lat="43.59832" lon="1.45619">
        <ele>146</ele>
        <time>2020-05-16T08:19:13.999Z</time>
      </trkpt>
      <trkpt lat="43.59842" lon="1.45622">
        <ele>146.7</ele>
        <time>2020-05-16T08:19:10.999Z</time>
      </trkpt>
      <trkpt lat="43.59853" lon="1.45628">
        <ele>147.3</ele>
        <time>2020-05-16T08:19:07.999Z</time>
      </trkpt>
      <trkpt lat="43.59864" lon="1.45626">
        <ele>147.8</ele>
        <time>2020-05-16T08:19:00.999Z</time>
      </trkpt>
      <trkpt lat="43.59872" lon="1.45616">
        <ele>147.9</ele>
        <time>2020-05-16T08:18:56.999Z</time>
      </trkpt>
      <trkpt lat="43.59882" lon="1.45612">
        <ele>147.5</ele>
        <time>2020-05-16T08:18:51.999Z</time>
      </trkpt>
      <trkpt lat="43.59892" lon="1.4561">
        <ele>147.1</ele>
        <time>2020-05-16T08:18:47.999Z</time>
      </trkpt>
      <trkpt lat="43.59902" lon="1.45608">
        <ele>147.2</ele>
        <time>2020-05-16T08:18:44.999Z</time>
      </trkpt>
      <trkpt lat="43.59911" lon="1.45606">
        <ele>147.3</ele>
        <time>2020-05-16T08:18:41.999Z</time>
      </trkpt>
      <trkpt lat="43.59923" lon="1.45608">
        <ele>147.1</ele>
        <time>2020-05-16T08:18:37.999Z</time>
      </trkpt>
      <trkpt lat="43.59935" lon="1.45611">
        <ele>147</ele>
        <time>2020-05-16T08:18:33.999Z</time>
      </trkpt>
      <trkpt lat="43.59944" lon="1.45613">
        <ele>146.9</ele>
        <time>2020-05-16T08:18:29.999Z</time>
      </trkpt>
      <trkpt lat="43.59955" lon="1.45613">
        <ele>146.9</ele>
        <time>2020-05-16T08:18:25.999Z</time>
      </trkpt>
      <trkpt lat="43.59966" lon="1.45614">
        <ele>146.8</ele>
        <time>2020-05-16T08:18:20.999Z</time>
      </trkpt>
      <trkpt lat="43.59976" lon="1.45613">
        <ele>146.9</ele>
        <time>2020-05-16T08:18:15.999Z</time>
      </trkpt>
      <trkpt lat="43.59986" lon="1.45609">
        <ele>147.1</ele>
        <time>2020-05-16T08:18:10.999Z</time>
      </trkpt>
      <trkpt lat="43.59996" lon="1.45609">
        <ele>147.1</ele>
        <time>2020-05-16T08:18:06.999Z</time>
      </trkpt>
      <trkpt lat="43.60008" lon="1.45609">
        <ele>146.5</ele>
        <time>2020-05-16T08:18:02.999Z</time>
      </trkpt>
      <trkpt lat="43.60018" lon="1.45608">
        <ele>146</ele>
        <time>2020-05-16T08:17:58.999Z</time>
      </trkpt>
      <trkpt lat="43.6003" lon="1.45606">
        <ele>145.5</ele>
        <time>2020-05-16T08:17:54.999Z</time>
      </trkpt>
      <trkpt lat="43.60041" lon="1.45607">
        <ele>145.1</ele>
        <time>2020-05-16T08:17:50.999Z</time>
      </trkpt>
      <trkpt lat="43.60052" lon="1.45609">
        <ele>144.5</ele>
        <time>2020-05-16T08:17:46.999Z</time>
      </trkpt>
      <trkpt lat="43.60061" lon="1.45613">
        <ele>145.2</ele>
        <time>2020-05-16T08:17:43.999Z</time>
      </trkpt>
      <trkpt lat="43.60072" lon="1.45618">
        <ele>147.2</ele>
        <time>2020-05-16T08:17:38.999Z</time>
      </trkpt>
      <trkpt lat="43.60081" lon="1.45619">
        <ele>148.5</ele>
        <time>2020-05-16T08:17:34.999Z</time>
      </trkpt>
      <trkpt lat="43.60092" lon="1.45621">
        <ele>148.5</ele>
        <time>2020-05-16T08:17:29.999Z</time>
      </trkpt>
      <trkpt lat="43.60102" lon="1.45622">
        <ele>148.2</ele>
        <time>2020-05-16T08:17:24.999Z</time>
      </trkpt>
      <trkpt lat="43.60112" lon="1.45624">
        <ele>147.7</ele>
        <time>2020-05-16T08:17:20.999Z</time>
      </trkpt>
      <trkpt lat="43.60121" lon="1.45626">
        <ele>147.5</ele>
        <time>2020-05-16T08:17:17.999Z</time>
      </trkpt>
      <trkpt lat="43.60132" lon="1.45629">
        <ele>147.3</ele>
        <time>2020-05-16T08:17:13.999Z</time>
      </trkpt>
      <trkpt lat="43.60141" lon="1.45632">
        <ele>147.1</ele>
        <time>2020-05-16T08:17:10.999Z</time>
      </trkpt>
      <trkpt lat="43.6015" lon="1.45635">
        <ele>147.5</ele>
        <time>2020-05-16T08:17:07.999Z</time>
      </trkpt>
      <trkpt lat="43.60163" lon="1.45637">
        <ele>148.6</ele>
        <time>2020-05-16T08:17:03.999Z</time>
      </trkpt>
      <trkpt lat="43.60173" lon="1.4564">
        <ele>149.1</ele>
        <time>2020-05-16T08:16:59.999Z</time>
      </trkpt>
      <trkpt lat="43.60184" lon="1.45641">
        <ele>149.3</ele>
        <time>2020-05-16T08:16:56.999Z</time>
      </trkpt>
      <trkpt lat="43.60193" lon="1.45643">
        <ele>149.4</ele>
        <time>2020-05-16T08:16:53.999Z</time>
      </trkpt>
      <trkpt lat="43.60203" lon="1.45647">
        <ele>149</ele>
        <time>2020-05-16T08:16:50.999Z</time>
      </trkpt>
      <trkpt lat="43.60213" lon="1.4565">
        <ele>148.9</ele>
        <time>2020-05-16T08:16:47.999Z</time>
      </trkpt>
      <trkpt lat="43.60222" lon="1.45654">
        <ele>148.9</ele>
        <time>2020-05-16T08:16:43.999Z</time>
      </trkpt>
      <trkpt lat="43.60231" lon="1.45657">
        <ele>149.1</ele>
        <time>2020-05-16T08:16:40.999Z</time>
      </trkpt>
      <trkpt lat="43.6024" lon="1.45662">
        <ele>149.4</ele>
        <time>2020-05-16T08:16:36.999Z</time>
      </trkpt>
      <trkpt lat="43.60248" lon="1.45666">
        <ele>149.9</ele>
        <time>2020-05-16T08:16:32.999Z</time>
      </trkpt>
      <trkpt lat="43.60258" lon="1.45669">
        <ele>149.5</ele>
        <time>2020-05-16T08:16:28.999Z</time>
      </trkpt>
      <trkpt lat="43.60267" lon="1.4567">
        <ele>149.1</ele>
        <time>2020-05-16T08:16:24.999Z</time>
      </trkpt>
      <trkpt lat="43.60277" lon="1.45671">
        <ele>148.7</ele>
        <time>2020-05-16T08:16:20.999Z</time>
      </trkpt>
      <trkpt lat="43.60286" lon="1.45671">
        <ele>148.7</ele>
        <time>2020-05-16T08:16:16.999Z</time>
      </trkpt>
      <trkpt lat="43.60296" lon="1.4567">
        <ele>148.8</ele>
        <time>2020-05-16T08:16:13.999Z</time>
      </trkpt>
      <trkpt lat="43.60307" lon="1.45671">
        <ele>148.7</ele>
        <time>2020-05-16T08:16:09.999Z</time>
      </trkpt>
      <trkpt lat="43.60317" lon="1.4567">
        <ele>148.7</ele>
        <time>2020-05-16T08:16:06.999Z</time>
      </trkpt>
      <trkpt lat="43.60327" lon="1.4567">
        <ele>148.7</ele>
        <time>2020-05-16T08:16:03.999Z</time>
      </trkpt>
      <trkpt lat="43.60337" lon="1.45671">
        <ele>148.5</ele>
        <time>2020-05-16T08:15:59.999Z</time>
      </trkpt>
      <trkpt lat="43.60349" lon="1.4567">
        <ele>148.6</ele>
        <time>2020-05-16T08:15:55.999Z</time>
      </trkpt>
      <trkpt lat="43.60358" lon="1.45674">
        <ele>148.2</ele>
        <time>2020-05-16T08:15:50.999Z</time>
      </trkpt>
      <trkpt lat="43.60369" lon="1.45672">
        <ele>148.4</ele>
        <time>2020-05-16T08:15:46.999Z</time>
      </trkpt>
      <trkpt lat="43.60379" lon="1.45674">
        <ele>148.2</ele>
        <time>2020-05-16T08:15:42.999Z</time>
      </trkpt>
      <trkpt lat="43.6039" lon="1.45678">
        <ele>147.8</ele>
        <time>2020-05-16T08:15:38.999Z</time>
      </trkpt>
      <trkpt lat="43.604" lon="1.45677">
        <ele>147.9</ele>
        <time>2020-05-16T08:15:35.999Z</time>
      </trkpt>
      <trkpt lat="43.6041" lon="1.45678">
        <ele>147.8</ele>
        <time>2020-05-16T08:15:30.999Z</time>
      </trkpt>
      <trkpt lat="43.60421" lon="1.45676">
        <ele>148</ele>
        <time>2020-05-16T08:15:27.999Z</time>
      </trkpt>
      <trkpt lat="43.60431" lon="1.45676">
        <ele>148</ele>
        <time>2020-05-16T08:15:23.999Z</time>
      </trkpt>
      <trkpt lat="43.60442" lon="1.45678">
        <ele>147.8</ele>
        <time>2020-05-16T08:15:18.999Z</time>
      </trkpt>
      <trkpt lat="43.60451" lon="1.4568">
        <ele>147.6</ele>
        <time>2020-05-16T08:15:14.999Z</time>
      </trkpt>
      <trkpt lat="43.6046" lon="1.45681">
        <ele>147.5</ele>
        <time>2020-05-16T08:15:10.999Z</time>
      </trkpt>
      <trkpt lat="43.60471" lon="1.4568">
        <ele>147.6</ele>
        <time>2020-05-16T08:15:06.999Z</time>
      </trkpt>
      <trkpt lat="43.60481" lon="1.45677">
        <ele>148.1</ele>
        <time>2020-05-16T08:15:02.999Z</time>
      </trkpt>
      <trkpt lat="43.60492" lon="1.45676">
        <ele>148.5</ele>
        <time>2020-05-16T08:14:58.999Z</time>
      </trkpt>
      <trkpt lat="43.60501" lon="1.45676">
        <ele>148.6</ele>
        <time>2020-05-16T08:14:54.999Z</time>
      </trkpt>
      <trkpt lat="43.60511" lon="1.45675">
        <ele>148.1</ele>
        <time>2020-05-16T08:14:43.999Z</time>
      </trkpt>
      <trkpt lat="43.60519" lon="1.45665">
        <ele>148.1</ele>
        <time>2020-05-16T08:14:40.999Z</time>
      </trkpt>
      <trkpt lat="43.60528" lon="1.45661">
        <ele>147.6</ele>
        <time>2020-05-16T08:14:37.999Z</time>
      </trkpt>
      <trkpt lat="43.60539" lon="1.45656">
        <ele>147.7</ele>
        <time>2020-05-16T08:14:33.999Z</time>
      </trkpt>
      <trkpt lat="43.6055" lon="1.4565">
        <ele>148</ele>
        <time>2020-05-16T08:14:29.999Z</time>
      </trkpt>
      <trkpt lat="43.60559" lon="1.45644">
        <ele>148.4</ele>
        <time>2020-05-16T08:14:24.999Z</time>
      </trkpt>
      <trkpt lat="43.60569" lon="1.45639">
        <ele>148.5</ele>
        <time>2020-05-16T08:14:20.999Z</time>
      </trkpt>
      <trkpt lat="43.60578" lon="1.45634">
        <ele>148.3</ele>
        <time>2020-05-16T08:14:17.999Z</time>
      </trkpt>
      <trkpt lat="43.60588" lon="1.45626">
        <ele>148.2</ele>
        <time>2020-05-16T08:14:14.999Z</time>
      </trkpt>
      <trkpt lat="43.60598" lon="1.45619">
        <ele>148</ele>
        <time>2020-05-16T08:14:08.999Z</time>
      </trkpt>
      <trkpt lat="43.60607" lon="1.45613">
        <ele>148</ele>
        <time>2020-05-16T08:14:03.999Z</time>
      </trkpt>
      <trkpt lat="43.60615" lon="1.45606">
        <ele>148</ele>
        <time>2020-05-16T08:14:00.999Z</time>
      </trkpt>
      <trkpt lat="43.60625" lon="1.45598">
        <ele>147.9</ele>
        <time>2020-05-16T08:13:57.999Z</time>
      </trkpt>
      <trkpt lat="43.60635" lon="1.45594">
        <ele>148</ele>
        <time>2020-05-16T08:13:52.999Z</time>
      </trkpt>
      <trkpt lat="43.60645" lon="1.4559">
        <ele>148.2</ele>
        <time>2020-05-16T08:13:46.999Z</time>
      </trkpt>
      <trkpt lat="43.60655" lon="1.45583">
        <ele>148.4</ele>
        <time>2020-05-16T08:13:42.999Z</time>
      </trkpt>
      <trkpt lat="43.60664" lon="1.45577">
        <ele>148.1</ele>
        <time>2020-05-16T08:13:37.999Z</time>
      </trkpt>
      <trkpt lat="43.60672" lon="1.4557">
        <ele>147.8</ele>
        <time>2020-05-16T08:13:34.999Z</time>
      </trkpt>
      <trkpt lat="43.6068" lon="1.45561">
        <ele>147.8</ele>
        <time>2020-05-16T08:13:31.999Z</time>
      </trkpt>
      <trkpt lat="43.60687" lon="1.45551">
        <ele>148</ele>
        <time>2020-05-16T08:13:29.999Z</time>
      </trkpt>
      <trkpt lat="43.60693" lon="1.45541">
        <ele>148</ele>
        <time>2020-05-16T08:13:28.999Z</time>
      </trkpt>
      <trkpt lat="43.60704" lon="1.45533">
        <ele>148</ele>
        <time>2020-05-16T08:13:24.999Z</time>
      </trkpt>
      <trkpt lat="43.60714" lon="1.45529">
        <ele>148</ele>
        <time>2020-05-16T08:13:19.999Z</time>
      </trkpt>
      <trkpt lat="43.60725" lon="1.45525">
        <ele>148.1</ele>
        <time>2020-05-16T08:13:14.999Z</time>
      </trkpt>
      <trkpt lat="43.60735" lon="1.45526">
        <ele>148</ele>
        <time>2020-05-16T08:13:11.999Z</time>
      </trkpt>
      <trkpt lat="43.60747" lon="1.45527">
        <ele>148</ele>
        <time>2020-05-16T08:13:07.999Z</time>
      </trkpt>
      <trkpt lat="43.60758" lon="1.45527">
        <ele>147.7</ele>
        <time>2020-05-16T08:13:04.999Z</time>
      </trkpt>
      <trkpt lat="43.6077" lon="1.45526">
        <ele>147.3</ele>
        <time>2020-05-16T08:13:00.999Z</time>
      </trkpt>
      <trkpt lat="43.6078" lon="1.45522">
        <ele>147.1</ele>
        <time>2020-05-16T08:12:56.999Z</time>
      </trkpt>
      <trkpt lat="43.60791" lon="1.45515">
        <ele>147.2</ele>
        <time>2020-05-16T08:12:51.999Z</time>
      </trkpt>
      <trkpt lat="43.60799" lon="1.45512">
        <ele>147.2</ele>
        <time>2020-05-16T08:12:48.999Z</time>
      </trkpt>
      <trkpt lat="43.60811" lon="1.45507">
        <ele>147.3</ele>
        <time>2020-05-16T08:12:44.999Z</time>
      </trkpt>
      <trkpt lat="43.60822" lon="1.455">
        <ele>146.8</ele>
        <time>2020-05-16T08:12:40.999Z</time>
      </trkpt>
      <trkpt lat="43.6083" lon="1.45491">
        <ele>146.8</ele>
        <time>2020-05-16T08:12:36.999Z</time>
      </trkpt>
      <trkpt lat="43.60837" lon="1.45484">
        <ele>147.2</ele>
        <time>2020-05-16T08:12:33.999Z</time>
      </trkpt>
      <trkpt lat="43.60846" lon="1.45478">
        <ele>147.6</ele>
        <time>2020-05-16T08:12:30.999Z</time>
      </trkpt>
      <trkpt lat="43.60857" lon="1.45475">
        <ele>147.8</ele>
        <time>2020-05-16T08:12:25.999Z</time>
      </trkpt>
      <trkpt lat="43.60867" lon="1.45474">
        <ele>147.5</ele>
        <time>2020-05-16T08:12:21.999Z</time>
      </trkpt>
      <trkpt lat="43.60875" lon="1.45467">
        <ele>147.2</ele>
        <time>2020-05-16T08:12:16.999Z</time>
      </trkpt>
      <trkpt lat="43.60883" lon="1.4546">
        <ele>147.1</ele>
        <time>2020-05-16T08:12:12.999Z</time>
      </trkpt>
      <trkpt lat="43.60889" lon="1.45451">
        <ele>147.5</ele>
        <time>2020-05-16T08:12:08.999Z</time>
      </trkpt>
      <trkpt lat="43.60897" lon="1.45442">
        <ele>147.5</ele>
        <time>2020-05-16T08:12:03.999Z</time>
      </trkpt>
      <trkpt lat="43.60906" lon="1.4543">
        <ele>147.6</ele>
        <time>2020-05-16T08:11:59.999Z</time>
      </trkpt>
      <trkpt lat="43.60914" lon="1.45421">
        <ele>147.8</ele>
        <time>2020-05-16T08:11:56.999Z</time>
      </trkpt>
      <trkpt lat="43.60921" lon="1.45412">
        <ele>148.4</ele>
        <time>2020-05-16T08:11:51.999Z</time>
      </trkpt>
      <trkpt lat="43.60929" lon="1.45403">
        <ele>148.7</ele>
        <time>2020-05-16T08:11:48.999Z</time>
      </trkpt>
      <trkpt lat="43.60936" lon="1.4539">
        <ele>148.3</ele>
        <time>2020-05-16T08:11:44.999Z</time>
      </trkpt>
      <trkpt lat="43.60942" lon="1.45379">
        <ele>148.1</ele>
        <time>2020-05-16T08:11:17.999Z</time>
      </trkpt>
      <trkpt lat="43.6095" lon="1.4537">
        <ele>147.7</ele>
        <time>2020-05-16T08:11:13.999Z</time>
      </trkpt>
      <trkpt lat="43.6096" lon="1.45362">
        <ele>146.9</ele>
        <time>2020-05-16T08:11:08.999Z</time>
      </trkpt>
      <trkpt lat="43.60968" lon="1.45356">
        <ele>146.4</ele>
        <time>2020-05-16T08:11:04.999Z</time>
      </trkpt>
      <trkpt lat="43.60977" lon="1.4535">
        <ele>146.5</ele>
        <time>2020-05-16T08:10:59.999Z</time>
      </trkpt>
      <trkpt lat="43.60985" lon="1.45343">
        <ele>146.7</ele>
        <time>2020-05-16T08:10:56.999Z</time>
      </trkpt>
      <trkpt lat="43.60996" lon="1.45335">
        <ele>146.2</ele>
        <time>2020-05-16T08:10:53.999Z</time>
      </trkpt>
      <trkpt lat="43.61006" lon="1.45328">
        <ele>146.2</ele>
        <time>2020-05-16T08:10:49.999Z</time>
      </trkpt>
      <trkpt lat="43.61014" lon="1.45319">
        <ele>146.3</ele>
        <time>2020-05-16T08:10:43.999Z</time>
      </trkpt>
      <trkpt lat="43.61024" lon="1.45314">
        <ele>146.1</ele>
        <time>2020-05-16T08:10:39.999Z</time>
      </trkpt>
      <trkpt lat="43.61033" lon="1.4531">
        <ele>146</ele>
        <time>2020-05-16T08:10:34.999Z</time>
      </trkpt>
      <trkpt lat="43.61044" lon="1.45306">
        <ele>146</ele>
        <time>2020-05-16T08:10:30.999Z</time>
      </trkpt>
      <trkpt lat="43.61054" lon="1.453">
        <ele>146</ele>
        <time>2020-05-16T08:10:26.999Z</time>
      </trkpt>
      <trkpt lat="43.61062" lon="1.45293">
        <ele>146</ele>
        <time>2020-05-16T08:10:22.999Z</time>
      </trkpt>
      <trkpt lat="43.61073" lon="1.45288">
        <ele>146</ele>
        <time>2020-05-16T08:10:18.999Z</time>
      </trkpt>
      <trkpt lat="43.61083" lon="1.45285">
        <ele>146</ele>
        <time>2020-05-16T08:10:12.999Z</time>
      </trkpt>
      <trkpt lat="43.61092" lon="1.45282">
        <ele>146</ele>
        <time>2020-05-16T08:10:08.999Z</time>
      </trkpt>
      <trkpt lat="43.61101" lon="1.45277">
        <ele>146</ele>
        <time>2020-05-16T08:10:04.999Z</time>
      </trkpt>
      <trkpt lat="43.61111" lon="1.45271">
        <ele>146</ele>
        <time>2020-05-16T08:10:00.999Z</time>
      </trkpt>
      <trkpt lat="43.61119" lon="1.45265">
        <ele>146</ele>
        <time>2020-05-16T08:09:56.999Z</time>
      </trkpt>
      <trkpt lat="43.61128" lon="1.45258">
        <ele>146</ele>
        <time>2020-05-16T08:09:52.999Z</time>
      </trkpt>
      <trkpt lat="43.61136" lon="1.45248">
        <ele>146</ele>
        <time>2020-05-16T08:09:48.999Z</time>
      </trkpt>
      <trkpt lat="43.61141" lon="1.45237">
        <ele>145.9</ele>
        <time>2020-05-16T08:09:45.999Z</time>
      </trkpt>
      <trkpt lat="43.61148" lon="1.4523">
        <ele>145.6</ele>
        <time>2020-05-16T08:09:42.999Z</time>
      </trkpt>
      <trkpt lat="43.61159" lon="1.45226">
        <ele>145.2</ele>
        <time>2020-05-16T08:09:38.999Z</time>
      </trkpt>
      <trkpt lat="43.61169" lon="1.45222">
        <ele>144.8</ele>
        <time>2020-05-16T08:09:35.999Z</time>
      </trkpt>
      <trkpt lat="43.61179" lon="1.45217">
        <ele>144.3</ele>
        <time>2020-05-16T08:09:31.999Z</time>
      </trkpt>
      <trkpt lat="43.61188" lon="1.45213">
        <ele>144</ele>
        <time>2020-05-16T08:09:26.999Z</time>
      </trkpt>
      <trkpt lat="43.61198" lon="1.45211">
        <ele>143.6</ele>
        <time>2020-05-16T08:09:22.999Z</time>
      </trkpt>
      <trkpt lat="43.61207" lon="1.45207">
        <ele>143.5</ele>
        <time>2020-05-16T08:09:18.999Z</time>
      </trkpt>
      <trkpt lat="43.61218" lon="1.45205">
        <ele>143.3</ele>
        <time>2020-05-16T08:09:13.999Z</time>
      </trkpt>
      <trkpt lat="43.61228" lon="1.45202">
        <ele>143.5</ele>
        <time>2020-05-16T08:09:09.999Z</time>
      </trkpt>
      <trkpt lat="43.61237" lon="1.45198">
        <ele>143.6</ele>
        <time>2020-05-16T08:09:06.999Z</time>
      </trkpt>
      <trkpt lat="43.61246" lon="1.45193">
        <ele>143.3</ele>
        <time>2020-05-16T08:09:03.999Z</time>
      </trkpt>
      <trkpt lat="43.61255" lon="1.45188">
        <ele>142.8</ele>
        <time>2020-05-16T08:08:58.999Z</time>
      </trkpt>
      <trkpt lat="43.61264" lon="1.45181">
        <ele>142.7</ele>
        <time>2020-05-16T08:08:55.999Z</time>
      </trkpt>
      <trkpt lat="43.61272" lon="1.45173">
        <ele>143.2</ele>
        <time>2020-05-16T08:08:49.999Z</time>
      </trkpt>
      <trkpt lat="43.61281" lon="1.45169">
        <ele>143.4</ele>
        <time>2020-05-16T08:08:44.999Z</time>
      </trkpt>
      <trkpt lat="43.6129" lon="1.45164">
        <ele>142.8</ele>
        <time>2020-05-16T08:08:40.999Z</time>
      </trkpt>
      <trkpt lat="43.613" lon="1.45157">
        <ele>142.2</ele>
        <time>2020-05-16T08:08:35.999Z</time>
      </trkpt>
      <trkpt lat="43.6131" lon="1.45149">
        <ele>142.2</ele>
        <time>2020-05-16T08:08:30.999Z</time>
      </trkpt>
      <trkpt lat="43.61318" lon="1.45141">
        <ele>142.8</ele>
        <time>2020-05-16T08:08:25.999Z</time>
      </trkpt>
      <trkpt lat="43.61325" lon="1.45133">
        <ele>143.1</ele>
        <time>2020-05-16T08:08:21.999Z</time>
      </trkpt>
      <trkpt lat="43.61332" lon="1.45125">
        <ele>143</ele>
        <time>2020-05-16T08:08:18.999Z</time>
      </trkpt>
      <trkpt lat="43.6134" lon="1.45114">
        <ele>142.7</ele>
        <time>2020-05-16T08:08:14.999Z</time>
      </trkpt>
      <trkpt lat="43.61347" lon="1.45105">
        <ele>142.7</ele>
        <time>2020-05-16T08:08:10.999Z</time>
      </trkpt>
      <trkpt lat="43.61353" lon="1.45092">
        <ele>143.3</ele>
        <time>2020-05-16T08:08:06.999Z</time>
      </trkpt>
      <trkpt lat="43.6136" lon="1.45081">
        <ele>144</ele>
        <time>2020-05-16T08:08:01.999Z</time>
      </trkpt>
      <trkpt lat="43.61365" lon="1.4507">
        <ele>143.6</ele>
        <time>2020-05-16T08:07:57.999Z</time>
      </trkpt>
      <trkpt lat="43.61373" lon="1.45059">
        <ele>143.1</ele>
        <time>2020-05-16T08:07:53.999Z</time>
      </trkpt>
      <trkpt lat="43.61382" lon="1.45048">
        <ele>142.7</ele>
        <time>2020-05-16T08:07:50.999Z</time>
      </trkpt>
      <trkpt lat="43.61389" lon="1.45036">
        <ele>142.7</ele>
        <time>2020-05-16T08:07:46.999Z</time>
      </trkpt>
      <trkpt lat="43.61394" lon="1.45024">
        <ele>142.3</ele>
        <time>2020-05-16T08:07:42.999Z</time>
      </trkpt>
      <trkpt lat="43.61398" lon="1.45011">
        <ele>142.1</ele>
        <time>2020-05-16T08:07:38.999Z</time>
      </trkpt>
      <trkpt lat="43.61404" lon="1.44999">
        <ele>141.9</ele>
        <time>2020-05-16T08:07:33.999Z</time>
      </trkpt>
      <trkpt lat="43.61411" lon="1.44987">
        <ele>141.8</ele>
        <time>2020-05-16T08:07:28.999Z</time>
      </trkpt>
      <trkpt lat="43.61417" lon="1.44978">
        <ele>141.8</ele>
        <time>2020-05-16T08:07:24.999Z</time>
      </trkpt>
      <trkpt lat="43.61427" lon="1.44963">
        <ele>141.3</ele>
        <time>2020-05-16T08:07:20.999Z</time>
      </trkpt>
      <trkpt lat="43.61432" lon="1.4495">
        <ele>140.9</ele>
        <time>2020-05-16T08:07:15.999Z</time>
      </trkpt>
      <trkpt lat="43.6144" lon="1.44942">
        <ele>140.5</ele>
        <time>2020-05-16T08:07:12.999Z</time>
      </trkpt>
      <trkpt lat="43.61446" lon="1.44932">
        <ele>140.9</ele>
        <time>2020-05-16T08:07:09.999Z</time>
      </trkpt>
      <trkpt lat="43.61452" lon="1.4492">
        <ele>141.3</ele>
        <time>2020-05-16T08:07:05.999Z</time>
      </trkpt>
      <trkpt lat="43.61458" lon="1.4491">
        <ele>141</ele>
        <time>2020-05-16T08:07:02.999Z</time>
      </trkpt>
      <trkpt lat="43.61464" lon="1.44899">
        <ele>140.6</ele>
        <time>2020-05-16T08:06:58.999Z</time>
      </trkpt>
      <trkpt lat="43.61468" lon="1.44886">
        <ele>140.4</ele>
        <time>2020-05-16T08:06:54.999Z</time>
      </trkpt>
      <trkpt lat="43.61475" lon="1.44873">
        <ele>140.6</ele>
        <time>2020-05-16T08:06:50.999Z</time>
      </trkpt>
      <trkpt lat="43.61479" lon="1.44861">
        <ele>140.8</ele>
        <time>2020-05-16T08:06:46.999Z</time>
      </trkpt>
      <trkpt lat="43.61483" lon="1.44849">
        <ele>140.6</ele>
        <time>2020-05-16T08:06:43.999Z</time>
      </trkpt>
      <trkpt lat="43.61488" lon="1.44834">
        <ele>140.4</ele>
        <time>2020-05-16T08:06:40.999Z</time>
      </trkpt>
      <trkpt lat="43.61493" lon="1.4482">
        <ele>140.7</ele>
        <time>2020-05-16T08:06:36.999Z</time>
      </trkpt>
      <trkpt lat="43.615" lon="1.44809">
        <ele>140.9</ele>
        <time>2020-05-16T08:06:32.999Z</time>
      </trkpt>
      <trkpt lat="43.61504" lon="1.44799">
        <ele>141</ele>
        <time>2020-05-16T08:06:29.999Z</time>
      </trkpt>
      <trkpt lat="43.6151" lon="1.44786">
        <ele>140.7</ele>
        <time>2020-05-16T08:06:26.999Z</time>
      </trkpt>
      <trkpt lat="43.61518" lon="1.44774">
        <ele>140.5</ele>
        <time>2020-05-16T08:06:21.999Z</time>
      </trkpt>
      <trkpt lat="43.61523" lon="1.4476">
        <ele>140.8</ele>
        <time>2020-05-16T08:06:17.999Z</time>
      </trkpt>
      <trkpt lat="43.61527" lon="1.44746">
        <ele>141</ele>
        <time>2020-05-16T08:06:14.999Z</time>
      </trkpt>
      <trkpt lat="43.61531" lon="1.44729">
        <ele>140.9</ele>
        <time>2020-05-16T08:06:10.999Z</time>
      </trkpt>
      <trkpt lat="43.61534" lon="1.44715">
        <ele>140.8</ele>
        <time>2020-05-16T08:06:06.999Z</time>
      </trkpt>
      <trkpt lat="43.61536" lon="1.44702">
        <ele>140.7</ele>
        <time>2020-05-16T08:06:01.999Z</time>
      </trkpt>
      <trkpt lat="43.61536" lon="1.44689">
        <ele>140.7</ele>
        <time>2020-05-16T08:05:53.999Z</time>
      </trkpt>
      <trkpt lat="43.61535" lon="1.44675">
        <ele>140.7</ele>
        <time>2020-05-16T08:05:49.999Z</time>
      </trkpt>
      <trkpt lat="43.61533" lon="1.44662">
        <ele>140.8</ele>
        <time>2020-05-16T08:05:44.999Z</time>
      </trkpt>
      <trkpt lat="43.61534" lon="1.44648">
        <ele>140.9</ele>
        <time>2020-05-16T08:05:41.999Z</time>
      </trkpt>
      <trkpt lat="43.61536" lon="1.44636">
        <ele>141</ele>
        <time>2020-05-16T08:05:39.999Z</time>
      </trkpt>
      <trkpt lat="43.61535" lon="1.44618">
        <ele>141</ele>
        <time>2020-05-16T08:05:34.999Z</time>
      </trkpt>
      <trkpt lat="43.61533" lon="1.44601">
        <ele>141</ele>
        <time>2020-05-16T08:05:30.999Z</time>
      </trkpt>
      <trkpt lat="43.61531" lon="1.44589">
        <ele>141</ele>
        <time>2020-05-16T08:05:25.999Z</time>
      </trkpt>
      <trkpt lat="43.61529" lon="1.44575">
        <ele>140.7</ele>
        <time>2020-05-16T08:05:21.999Z</time>
      </trkpt>
      <trkpt lat="43.61527" lon="1.4456">
        <ele>140.2</ele>
        <time>2020-05-16T08:05:13.999Z</time>
      </trkpt>
      <trkpt lat="43.6153" lon="1.44544">
        <ele>140.1</ele>
        <time>2020-05-16T08:05:10.999Z</time>
      </trkpt>
      <trkpt lat="43.61527" lon="1.4453">
        <ele>140</ele>
        <time>2020-05-16T08:05:05.999Z</time>
      </trkpt>
      <trkpt lat="43.61524" lon="1.44516">
        <ele>140.1</ele>
        <time>2020-05-16T08:05:00.999Z</time>
      </trkpt>
      <trkpt lat="43.6152" lon="1.44504">
        <ele>140.3</ele>
        <time>2020-05-16T08:04:56.999Z</time>
      </trkpt>
      <trkpt lat="43.61517" lon="1.4449">
        <ele>140.4</ele>
        <time>2020-05-16T08:04:53.999Z</time>
      </trkpt>
      <trkpt lat="43.61515" lon="1.44476">
        <ele>140.5</ele>
        <time>2020-05-16T08:04:49.999Z</time>
      </trkpt>
      <trkpt lat="43.61514" lon="1.44462">
        <ele>140.7</ele>
        <time>2020-05-16T08:04:46.999Z</time>
      </trkpt>
      <trkpt lat="43.61512" lon="1.44445">
        <ele>141</ele>
        <time>2020-05-16T08:04:43.999Z</time>
      </trkpt>
      <trkpt lat="43.61511" lon="1.44432">
        <ele>141</ele>
        <time>2020-05-16T08:04:41.999Z</time>
      </trkpt>
      <trkpt lat="43.61513" lon="1.44412">
        <ele>141</ele>
        <time>2020-05-16T08:04:39.999Z</time>
      </trkpt>
      <trkpt lat="43.61512" lon="1.44399">
        <ele>141</ele>
        <time>2020-05-16T08:04:37.999Z</time>
      </trkpt>
      <trkpt lat="43.6151" lon="1.44384">
        <ele>141</ele>
        <time>2020-05-16T08:04:35.999Z</time>
      </trkpt>
      <trkpt lat="43.61507" lon="1.44367">
        <ele>141</ele>
        <time>2020-05-16T08:04:30.999Z</time>
      </trkpt>
      <trkpt lat="43.61502" lon="1.44351">
        <ele>140.7</ele>
        <time>2020-05-16T08:04:21.999Z</time>
      </trkpt>
      <trkpt lat="43.61498" lon="1.44339">
        <ele>140.2</ele>
        <time>2020-05-16T08:04:13.999Z</time>
      </trkpt>
      <trkpt lat="43.61496" lon="1.44327">
        <ele>140.2</ele>
        <time>2020-05-16T08:04:08.999Z</time>
      </trkpt>
      <trkpt lat="43.61495" lon="1.44314">
        <ele>140.7</ele>
        <time>2020-05-16T08:04:04.999Z</time>
      </trkpt>
      <trkpt lat="43.61495" lon="1.44302">
        <ele>141</ele>
        <time>2020-05-16T08:04:01.999Z</time>
      </trkpt>
      <trkpt lat="43.61495" lon="1.44289">
        <ele>140.9</ele>
        <time>2020-05-16T08:03:58.999Z</time>
      </trkpt>
      <trkpt lat="43.61499" lon="1.44275">
        <ele>141</ele>
        <time>2020-05-16T08:03:54.999Z</time>
      </trkpt>
      <trkpt lat="43.61503" lon="1.44262">
        <ele>140.9</ele>
        <time>2020-05-16T08:03:51.999Z</time>
      </trkpt>
      <trkpt lat="43.61507" lon="1.44249">
        <ele>140.7</ele>
        <time>2020-05-16T08:03:47.999Z</time>
      </trkpt>
      <trkpt lat="43.61508" lon="1.44236">
        <ele>140.7</ele>
        <time>2020-05-16T08:03:43.999Z</time>
      </trkpt>
      <trkpt lat="43.61509" lon="1.4422">
        <ele>140.7</ele>
        <time>2020-05-16T08:03:38.999Z</time>
      </trkpt>
      <trkpt lat="43.61513" lon="1.44206">
        <ele>140.3</ele>
        <time>2020-05-16T08:03:34.999Z</time>
      </trkpt>
      <trkpt lat="43.61515" lon="1.44188">
        <ele>140.1</ele>
        <time>2020-05-16T08:03:30.999Z</time>
      </trkpt>
      <trkpt lat="43.61517" lon="1.44176">
        <ele>140.3</ele>
        <time>2020-05-16T08:03:27.999Z</time>
      </trkpt>
      <trkpt lat="43.61519" lon="1.44164">
        <ele>140.7</ele>
        <time>2020-05-16T08:03:23.999Z</time>
      </trkpt>
      <trkpt lat="43.61524" lon="1.44152">
        <ele>140.9</ele>
        <time>2020-05-16T08:03:19.999Z</time>
      </trkpt>
      <trkpt lat="43.61529" lon="1.4414">
        <ele>141</ele>
        <time>2020-05-16T08:03:14.999Z</time>
      </trkpt>
      <trkpt lat="43.61535" lon="1.44127">
        <ele>140.6</ele>
        <time>2020-05-16T08:03:11.999Z</time>
      </trkpt>
      <trkpt lat="43.61541" lon="1.44113">
        <ele>140.1</ele>
        <time>2020-05-16T08:03:07.999Z</time>
      </trkpt>
      <trkpt lat="43.61547" lon="1.44101">
        <ele>139.9</ele>
        <time>2020-05-16T08:03:03.999Z</time>
      </trkpt>
      <trkpt lat="43.61553" lon="1.4409">
        <ele>139.9</ele>
        <time>2020-05-16T08:02:58.999Z</time>
      </trkpt>
      <trkpt lat="43.61558" lon="1.44076">
        <ele>140.2</ele>
        <time>2020-05-16T08:02:52.999Z</time>
      </trkpt>
      <trkpt lat="43.61563" lon="1.44065">
        <ele>140.5</ele>
        <time>2020-05-16T08:02:48.999Z</time>
      </trkpt>
      <trkpt lat="43.61568" lon="1.44053">
        <ele>140.6</ele>
        <time>2020-05-16T08:02:44.999Z</time>
      </trkpt>
      <trkpt lat="43.61574" lon="1.44038">
        <ele>140.3</ele>
        <time>2020-05-16T08:02:40.999Z</time>
      </trkpt>
      <trkpt lat="43.61579" lon="1.44028">
        <ele>140.2</ele>
        <time>2020-05-16T08:02:36.999Z</time>
      </trkpt>
      <trkpt lat="43.61583" lon="1.44016">
        <ele>140</ele>
        <time>2020-05-16T08:02:32.999Z</time>
      </trkpt>
      <trkpt lat="43.61588" lon="1.44002">
        <ele>140.2</ele>
        <time>2020-05-16T08:02:28.999Z</time>
      </trkpt>
      <trkpt lat="43.61591" lon="1.43989">
        <ele>140.2</ele>
        <time>2020-05-16T08:02:23.999Z</time>
      </trkpt>
      <trkpt lat="43.61596" lon="1.43977">
        <ele>140.1</ele>
        <time>2020-05-16T08:02:19.999Z</time>
      </trkpt>
      <trkpt lat="43.61601" lon="1.43964">
        <ele>140</ele>
        <time>2020-05-16T08:02:16.999Z</time>
      </trkpt>
      <trkpt lat="43.61605" lon="1.43947">
        <ele>140</ele>
        <time>2020-05-16T08:02:13.999Z</time>
      </trkpt>
      <trkpt lat="43.61608" lon="1.43935">
        <ele>140</ele>
        <time>2020-05-16T08:02:11.999Z</time>
      </trkpt>
      <trkpt lat="43.61612" lon="1.43922">
        <ele>140</ele>
        <time>2020-05-16T08:02:06.999Z</time>
      </trkpt>
      <trkpt lat="43.61614" lon="1.43909">
        <ele>140.1</ele>
        <time>2020-05-16T08:02:01.999Z</time>
      </trkpt>
      <trkpt lat="43.61614" lon="1.43893">
        <ele>140.1</ele>
        <time>2020-05-16T08:01:55.999Z</time>
      </trkpt>
      <trkpt lat="43.61612" lon="1.43879">
        <ele>140</ele>
        <time>2020-05-16T08:01:49.999Z</time>
      </trkpt>
      <trkpt lat="43.61609" lon="1.43866">
        <ele>140</ele>
        <time>2020-05-16T08:01:44.999Z</time>
      </trkpt>
      <trkpt lat="43.61604" lon="1.43855">
        <ele>140</ele>
        <time>2020-05-16T08:01:41.999Z</time>
      </trkpt>
      <trkpt lat="43.61599" lon="1.43843">
        <ele>140</ele>
        <time>2020-05-16T08:01:37.999Z</time>
      </trkpt>
      <trkpt lat="43.61599" lon="1.4383">
        <ele>140</ele>
        <time>2020-05-16T08:01:33.999Z</time>
      </trkpt>
      <trkpt lat="43.61598" lon="1.43815">
        <ele>140</ele>
        <time>2020-05-16T08:01:28.999Z</time>
      </trkpt>
      <trkpt lat="43.61597" lon="1.43802">
        <ele>140.1</ele>
        <time>2020-05-16T08:01:24.999Z</time>
      </trkpt>
      <trkpt lat="43.61594" lon="1.43789">
        <ele>140.6</ele>
        <time>2020-05-16T08:01:21.999Z</time>
      </trkpt>
      <trkpt lat="43.61592" lon="1.43776">
        <ele>141.1</ele>
        <time>2020-05-16T08:01:18.999Z</time>
      </trkpt>
      <trkpt lat="43.61591" lon="1.43762">
        <ele>141.4</ele>
        <time>2020-05-16T08:01:14.999Z</time>
      </trkpt>
      <trkpt lat="43.61587" lon="1.4375">
        <ele>142.3</ele>
        <time>2020-05-16T08:01:10.999Z</time>
      </trkpt>
      <trkpt lat="43.61583" lon="1.43739">
        <ele>143.4</ele>
        <time>2020-05-16T08:01:06.999Z</time>
      </trkpt>
      <trkpt lat="43.61582" lon="1.43725">
        <ele>143.8</ele>
        <time>2020-05-16T08:01:01.999Z</time>
      </trkpt>
      <trkpt lat="43.61585" lon="1.43711">
        <ele>143.1</ele>
        <time>2020-05-16T08:00:56.999Z</time>
      </trkpt>
      <trkpt lat="43.61585" lon="1.43696">
        <ele>141.9</ele>
        <time>2020-05-16T08:00:52.999Z</time>
      </trkpt>
      <trkpt lat="43.61584" lon="1.43682">
        <ele>140.6</ele>
        <time>2020-05-16T08:00:48.999Z</time>
      </trkpt>
      <trkpt lat="43.61585" lon="1.43669">
        <ele>139.3</ele>
        <time>2020-05-16T08:00:45.999Z</time>
      </trkpt>
      <trkpt lat="43.61583" lon="1.43653">
        <ele>138.5</ele>
        <time>2020-05-16T08:00:41.999Z</time>
      </trkpt>
      <trkpt lat="43.61582" lon="1.4364">
        <ele>138.1</ele>
        <time>2020-05-16T08:00:36.999Z</time>
      </trkpt>
      <trkpt lat="43.61582" lon="1.43625">
        <ele>138.1</ele>
        <time>2020-05-16T08:00:31.999Z</time>
      </trkpt>
      <trkpt lat="43.6158" lon="1.43612">
        <ele>138.1</ele>
        <time>2020-05-16T08:00:26.999Z</time>
      </trkpt>
      <trkpt lat="43.61576" lon="1.43598">
        <ele>137.8</ele>
        <time>2020-05-16T08:00:21.999Z</time>
      </trkpt>
      <trkpt lat="43.61571" lon="1.43584">
        <ele>137.5</ele>
        <time>2020-05-16T08:00:16.999Z</time>
      </trkpt>
      <trkpt lat="43.61568" lon="1.4357">
        <ele>137.1</ele>
        <time>2020-05-16T08:00:12.999Z</time>
      </trkpt>
      <trkpt lat="43.61562" lon="1.43559">
        <ele>136.9</ele>
        <time>2020-05-16T08:00:08.999Z</time>
      </trkpt>
      <trkpt lat="43.61555" lon="1.43547">
        <ele>137</ele>
        <time>2020-05-16T08:00:04.999Z</time>
      </trkpt>
      <trkpt lat="43.61549" lon="1.43534">
        <ele>137.1</ele>
        <time>2020-05-16T07:59:59.999Z</time>
      </trkpt>
      <trkpt lat="43.61543" lon="1.43524">
        <ele>136.8</ele>
        <time>2020-05-16T07:59:55.999Z</time>
      </trkpt>
      <trkpt lat="43.61536" lon="1.43513">
        <ele>136.3</ele>
        <time>2020-05-16T07:59:51.999Z</time>
      </trkpt>
      <trkpt lat="43.6153" lon="1.43501">
        <ele>136</ele>
        <time>2020-05-16T07:59:47.999Z</time>
      </trkpt>
      <trkpt lat="43.6153" lon="1.43502">
        <ele>136</ele>
      </trkpt>
      <trkpt lat="43.61526" lon="1.4346">
        <ele>136</ele>
        <time>2020-05-16T09:01:39.000Z</time>
      </trkpt>
      <trkpt lat="43.61526" lon="1.43447">
        <ele>136</ele>
        <time>2020-05-16T09:01:24.000Z</time>
      </trkpt>
      <trkpt lat="43.61521" lon="1.43434">
        <ele>135.7</ele>
        <time>2020-05-16T09:01:19.000Z</time>
      </trkpt>
      <trkpt lat="43.61515" lon="1.4342">
        <ele>135.5</ele>
        <time>2020-05-16T09:01:15.000Z</time>
      </trkpt>
      <trkpt lat="43.6151" lon="1.43408">
        <ele>135.8</ele>
        <time>2020-05-16T09:01:11.000Z</time>
      </trkpt>
      <trkpt lat="43.61504" lon="1.43396">
        <ele>136</ele>
        <time>2020-05-16T09:01:07.000Z</time>
      </trkpt>
      <trkpt lat="43.61497" lon="1.43384">
        <ele>135.8</ele>
        <time>2020-05-16T09:01:03.000Z</time>
      </trkpt>
      <trkpt lat="43.6149" lon="1.43373">
        <ele>135.6</ele>
        <time>2020-05-16T09:00:59.000Z</time>
      </trkpt>
      <trkpt lat="43.61483" lon="1.43363">
        <ele>135.6</ele>
        <time>2020-05-16T09:00:54.000Z</time>
      </trkpt>
      <trkpt lat="43.61475" lon="1.43352">
        <ele>135.6</ele>
        <time>2020-05-16T09:00:50.000Z</time>
      </trkpt>
      <trkpt lat="43.61468" lon="1.43342">
        <ele>135.4</ele>
        <time>2020-05-16T09:00:47.000Z</time>
      </trkpt>
      <trkpt lat="43.61462" lon="1.43332">
        <ele>135.4</ele>
        <time>2020-05-16T09:00:41.000Z</time>
      </trkpt>
      <trkpt lat="43.61454" lon="1.43324">
        <ele>135.8</ele>
        <time>2020-05-16T09:00:37.000Z</time>
      </trkpt>
      <trkpt lat="43.61448" lon="1.43315">
        <ele>136</ele>
        <time>2020-05-16T09:00:32.000Z</time>
      </trkpt>
      <trkpt lat="43.61442" lon="1.43303">
        <ele>136</ele>
        <time>2020-05-16T09:00:28.000Z</time>
      </trkpt>
      <trkpt lat="43.61437" lon="1.43293">
        <ele>136</ele>
        <time>2020-05-16T09:00:24.000Z</time>
      </trkpt>
      <trkpt lat="43.61431" lon="1.43281">
        <ele>136</ele>
        <time>2020-05-16T09:00:19.000Z</time>
      </trkpt>
      <trkpt lat="43.61425" lon="1.43269">
        <ele>136</ele>
        <time>2020-05-16T09:00:14.000Z</time>
      </trkpt>
      <trkpt lat="43.61417" lon="1.43259">
        <ele>136</ele>
        <time>2020-05-16T09:00:10.000Z</time>
      </trkpt>
      <trkpt lat="43.6141" lon="1.43247">
        <ele>136</ele>
        <time>2020-05-16T09:00:06.000Z</time>
      </trkpt>
      <trkpt lat="43.61403" lon="1.43238">
        <ele>136</ele>
        <time>2020-05-16T09:00:03.000Z</time>
      </trkpt>
      <trkpt lat="43.61396" lon="1.43226">
        <ele>136</ele>
        <time>2020-05-16T08:59:58.000Z</time>
      </trkpt>
      <trkpt lat="43.6139" lon="1.43215">
        <ele>136</ele>
        <time>2020-05-16T08:59:54.000Z</time>
      </trkpt>
      <trkpt lat="43.61385" lon="1.43203">
        <ele>136.1</ele>
        <time>2020-05-16T08:59:50.000Z</time>
      </trkpt>
      <trkpt lat="43.61379" lon="1.43192">
        <ele>136</ele>
        <time>2020-05-16T08:59:47.000Z</time>
      </trkpt>
      <trkpt lat="43.61374" lon="1.43179">
        <ele>136</ele>
        <time>2020-05-16T08:59:42.000Z</time>
      </trkpt>
      <trkpt lat="43.61366" lon="1.43168">
        <ele>136</ele>
        <time>2020-05-16T08:59:37.000Z</time>
      </trkpt>
      <trkpt lat="43.61361" lon="1.43156">
        <ele>136</ele>
        <time>2020-05-16T08:59:33.000Z</time>
      </trkpt>
      <trkpt lat="43.61355" lon="1.43144">
        <ele>136</ele>
        <time>2020-05-16T08:59:29.000Z</time>
      </trkpt>
      <trkpt lat="43.6135" lon="1.43131">
        <ele>136</ele>
        <time>2020-05-16T08:59:25.000Z</time>
      </trkpt>
      <trkpt lat="43.61344" lon="1.4312">
        <ele>136</ele>
        <time>2020-05-16T08:59:20.000Z</time>
      </trkpt>
      <trkpt lat="43.61339" lon="1.43108">
        <ele>136</ele>
        <time>2020-05-16T08:59:16.000Z</time>
      </trkpt>
      <trkpt lat="43.61335" lon="1.43097">
        <ele>136</ele>
        <time>2020-05-16T08:59:13.000Z</time>
      </trkpt>
      <trkpt lat="43.61332" lon="1.43085">
        <ele>136</ele>
        <time>2020-05-16T08:59:08.000Z</time>
      </trkpt>
      <trkpt lat="43.61327" lon="1.43074">
        <ele>136</ele>
        <time>2020-05-16T08:59:04.000Z</time>
      </trkpt>
      <trkpt lat="43.61325" lon="1.4306">
        <ele>136</ele>
        <time>2020-05-16T08:58:59.000Z</time>
      </trkpt>
      <trkpt lat="43.61319" lon="1.43047">
        <ele>136</ele>
        <time>2020-05-16T08:58:54.000Z</time>
      </trkpt>
      <trkpt lat="43.61314" lon="1.43034">
        <ele>136</ele>
        <time>2020-05-16T08:58:50.000Z</time>
      </trkpt>
      <trkpt lat="43.61311" lon="1.43019">
        <ele>136</ele>
        <time>2020-05-16T08:58:45.000Z</time>
      </trkpt>
      <trkpt lat="43.61306" lon="1.43007">
        <ele>136</ele>
        <time>2020-05-16T08:58:41.000Z</time>
      </trkpt>
      <trkpt lat="43.613" lon="1.42996">
        <ele>135.7</ele>
        <time>2020-05-16T08:58:38.000Z</time>
      </trkpt>
      <trkpt lat="43.61295" lon="1.42982">
        <ele>135.5</ele>
        <time>2020-05-16T08:58:33.000Z</time>
      </trkpt>
      <trkpt lat="43.61291" lon="1.42969">
        <ele>135.6</ele>
        <time>2020-05-16T08:58:28.000Z</time>
      </trkpt>
      <trkpt lat="43.61288" lon="1.42954">
        <ele>135.9</ele>
        <time>2020-05-16T08:58:24.000Z</time>
      </trkpt>
      <trkpt lat="43.61287" lon="1.4294">
        <ele>136</ele>
        <time>2020-05-16T08:58:21.000Z</time>
      </trkpt>
      <trkpt lat="43.61284" lon="1.42928">
        <ele>136</ele>
        <time>2020-05-16T08:58:18.000Z</time>
      </trkpt>
      <trkpt lat="43.61282" lon="1.42911">
        <ele>135.8</ele>
        <time>2020-05-16T08:58:15.000Z</time>
      </trkpt>
      <trkpt lat="43.6128" lon="1.42896">
        <ele>135.3</ele>
        <time>2020-05-16T08:58:11.000Z</time>
      </trkpt>
      <trkpt lat="43.61278" lon="1.42884">
        <ele>135</ele>
        <time>2020-05-16T08:58:07.000Z</time>
      </trkpt>
      <trkpt lat="43.61275" lon="1.42869">
        <ele>135.1</ele>
        <time>2020-05-16T08:58:02.000Z</time>
      </trkpt>
      <trkpt lat="43.61272" lon="1.42856">
        <ele>135.4</ele>
        <time>2020-05-16T08:57:58.000Z</time>
      </trkpt>
      <trkpt lat="43.61267" lon="1.42845">
        <ele>135.7</ele>
        <time>2020-05-16T08:57:54.000Z</time>
      </trkpt>
      <trkpt lat="43.61263" lon="1.42831">
        <ele>136</ele>
        <time>2020-05-16T08:57:49.000Z</time>
      </trkpt>
      <trkpt lat="43.61259" lon="1.42817">
        <ele>136</ele>
        <time>2020-05-16T08:57:45.000Z</time>
      </trkpt>
      <trkpt lat="43.61256" lon="1.42804">
        <ele>136</ele>
        <time>2020-05-16T08:57:41.000Z</time>
      </trkpt>
      <trkpt lat="43.61252" lon="1.42789">
        <ele>136</ele>
        <time>2020-05-16T08:57:36.000Z</time>
      </trkpt>
      <trkpt lat="43.61248" lon="1.42775">
        <ele>136</ele>
        <time>2020-05-16T08:57:32.000Z</time>
      </trkpt>
      <trkpt lat="43.61244" lon="1.42763">
        <ele>135.7</ele>
        <time>2020-05-16T08:57:27.000Z</time>
      </trkpt>
      <trkpt lat="43.61242" lon="1.42749">
        <ele>135.3</ele>
        <time>2020-05-16T08:57:23.000Z</time>
      </trkpt>
      <trkpt lat="43.61239" lon="1.42735">
        <ele>135.4</ele>
        <time>2020-05-16T08:57:19.000Z</time>
      </trkpt>
      <trkpt lat="43.61236" lon="1.42722">
        <ele>135.5</ele>
        <time>2020-05-16T08:57:14.000Z</time>
      </trkpt>
      <trkpt lat="43.61233" lon="1.42709">
        <ele>135.8</ele>
        <time>2020-05-16T08:57:10.000Z</time>
      </trkpt>
      <trkpt lat="43.61231" lon="1.42694">
        <ele>136</ele>
        <time>2020-05-16T08:57:06.000Z</time>
      </trkpt>
      <trkpt lat="43.61229" lon="1.42682">
        <ele>136</ele>
        <time>2020-05-16T08:57:03.000Z</time>
      </trkpt>
      <trkpt lat="43.61227" lon="1.4267">
        <ele>136</ele>
        <time>2020-05-16T08:57:00.000Z</time>
      </trkpt>
      <trkpt lat="43.61223" lon="1.42658">
        <ele>135.7</ele>
        <time>2020-05-16T08:56:56.000Z</time>
      </trkpt>
      <trkpt lat="43.61219" lon="1.42644">
        <ele>135.3</ele>
        <time>2020-05-16T08:56:51.000Z</time>
      </trkpt>
      <trkpt lat="43.61216" lon="1.4263">
        <ele>135.2</ele>
        <time>2020-05-16T08:56:47.000Z</time>
      </trkpt>
      <trkpt lat="43.61213" lon="1.42618">
        <ele>135.3</ele>
        <time>2020-05-16T08:56:44.000Z</time>
      </trkpt>
      <trkpt lat="43.6121" lon="1.42604">
        <ele>135.6</ele>
        <time>2020-05-16T08:56:41.000Z</time>
      </trkpt>
      <trkpt lat="43.61206" lon="1.42588">
        <ele>135.9</ele>
        <time>2020-05-16T08:56:35.000Z</time>
      </trkpt>
      <trkpt lat="43.61202" lon="1.42576">
        <ele>136</ele>
        <time>2020-05-16T08:56:30.000Z</time>
      </trkpt>
      <trkpt lat="43.61201" lon="1.42563">
        <ele>136</ele>
        <time>2020-05-16T08:56:27.000Z</time>
      </trkpt>
      <trkpt lat="43.61201" lon="1.42548">
        <ele>136</ele>
        <time>2020-05-16T08:56:23.000Z</time>
      </trkpt>
      <trkpt lat="43.61201" lon="1.42536">
        <ele>136</ele>
        <time>2020-05-16T08:56:20.000Z</time>
      </trkpt>
      <trkpt lat="43.61199" lon="1.42522">
        <ele>135.5</ele>
        <time>2020-05-16T08:56:17.000Z</time>
      </trkpt>
      <trkpt lat="43.61196" lon="1.42508">
        <ele>134</ele>
        <time>2020-05-16T08:56:11.000Z</time>
      </trkpt>
      <trkpt lat="43.61196" lon="1.42493">
        <ele>133.2</ele>
        <time>2020-05-16T08:56:06.000Z</time>
      </trkpt>
      <trkpt lat="43.61195" lon="1.42479">
        <ele>133</ele>
        <time>2020-05-16T08:56:02.000Z</time>
      </trkpt>
      <trkpt lat="43.61192" lon="1.42466">
        <ele>133</ele>
        <time>2020-05-16T08:55:58.000Z</time>
      </trkpt>
      <trkpt lat="43.6119" lon="1.42454">
        <ele>132.8</ele>
        <time>2020-05-16T08:55:54.000Z</time>
      </trkpt>
      <trkpt lat="43.61187" lon="1.42441">
        <ele>132.8</ele>
        <time>2020-05-16T08:55:50.000Z</time>
      </trkpt>
      <trkpt lat="43.61184" lon="1.42426">
        <ele>133.1</ele>
        <time>2020-05-16T08:55:46.000Z</time>
      </trkpt>
      <trkpt lat="43.61181" lon="1.42413">
        <ele>133.5</ele>
        <time>2020-05-16T08:55:42.000Z</time>
      </trkpt>
      <trkpt lat="43.61179" lon="1.42399">
        <ele>134</ele>
        <time>2020-05-16T08:55:38.000Z</time>
      </trkpt>
      <trkpt lat="43.61178" lon="1.42384">
        <ele>134.2</ele>
        <time>2020-05-16T08:55:32.000Z</time>
      </trkpt>
      <trkpt lat="43.61176" lon="1.42372">
        <ele>134.1</ele>
        <time>2020-05-16T08:55:27.000Z</time>
      </trkpt>
      <trkpt lat="43.61175" lon="1.42357">
        <ele>133.9</ele>
        <time>2020-05-16T08:55:23.000Z</time>
      </trkpt>
      <trkpt lat="43.61173" lon="1.42342">
        <ele>133.5</ele>
        <time>2020-05-16T08:55:19.000Z</time>
      </trkpt>
      <trkpt lat="43.61169" lon="1.42329">
        <ele>133.1</ele>
        <time>2020-05-16T08:55:14.000Z</time>
      </trkpt>
      <trkpt lat="43.61166" lon="1.42315">
        <ele>133</ele>
        <time>2020-05-16T08:55:10.000Z</time>
      </trkpt>
      <trkpt lat="43.61163" lon="1.423">
        <ele>133.1</ele>
        <time>2020-05-16T08:55:07.000Z</time>
      </trkpt>
      <trkpt lat="43.61161" lon="1.42285">
        <ele>132.8</ele>
        <time>2020-05-16T08:55:02.000Z</time>
      </trkpt>
      <trkpt lat="43.61159" lon="1.42273">
        <ele>133</ele>
        <time>2020-05-16T08:54:58.000Z</time>
      </trkpt>
      <trkpt lat="43.61156" lon="1.42258">
        <ele>133.6</ele>
        <time>2020-05-16T08:54:53.000Z</time>
      </trkpt>
      <trkpt lat="43.61154" lon="1.42245">
        <ele>133.9</ele>
        <time>2020-05-16T08:54:49.000Z</time>
      </trkpt>
      <trkpt lat="43.61153" lon="1.42231">
        <ele>134</ele>
        <time>2020-05-16T08:54:45.000Z</time>
      </trkpt>
      <trkpt lat="43.6115" lon="1.42218">
        <ele>134.3</ele>
        <time>2020-05-16T08:54:42.000Z</time>
      </trkpt>
      <trkpt lat="43.61149" lon="1.42205">
        <ele>134.5</ele>
        <time>2020-05-16T08:54:38.000Z</time>
      </trkpt>
      <trkpt lat="43.61146" lon="1.42189">
        <ele>134.5</ele>
        <time>2020-05-16T08:54:33.000Z</time>
      </trkpt>
      <trkpt lat="43.61142" lon="1.42177">
        <ele>133.8</ele>
        <time>2020-05-16T08:54:29.000Z</time>
      </trkpt>
      <trkpt lat="43.61137" lon="1.42163">
        <ele>133.1</ele>
        <time>2020-05-16T08:54:24.000Z</time>
      </trkpt>
      <trkpt lat="43.61134" lon="1.42151">
        <ele>133.4</ele>
        <time>2020-05-16T08:54:20.000Z</time>
      </trkpt>
      <trkpt lat="43.61132" lon="1.42137">
        <ele>133.4</ele>
        <time>2020-05-16T08:54:15.000Z</time>
      </trkpt>
      <trkpt lat="43.61131" lon="1.42124">
        <ele>133.2</ele>
        <time>2020-05-16T08:54:11.000Z</time>
      </trkpt>
      <trkpt lat="43.6113" lon="1.42112">
        <ele>133</ele>
        <time>2020-05-16T08:54:07.000Z</time>
      </trkpt>
      <trkpt lat="43.61128" lon="1.42096">
        <ele>133.7</ele>
        <time>2020-05-16T08:54:03.000Z</time>
      </trkpt>
      <trkpt lat="43.61124" lon="1.42082">
        <ele>134.6</ele>
        <time>2020-05-16T08:53:58.000Z</time>
      </trkpt>
      <trkpt lat="43.61119" lon="1.4207">
        <ele>135.1</ele>
        <time>2020-05-16T08:53:55.000Z</time>
      </trkpt>
      <trkpt lat="43.61115" lon="1.42055">
        <ele>135.6</ele>
        <time>2020-05-16T08:53:51.000Z</time>
      </trkpt>
      <trkpt lat="43.61113" lon="1.42041">
        <ele>135.3</ele>
        <time>2020-05-16T08:53:47.000Z</time>
      </trkpt>
      <trkpt lat="43.61112" lon="1.42029">
        <ele>135</ele>
        <time>2020-05-16T08:53:43.000Z</time>
      </trkpt>
      <trkpt lat="43.61112" lon="1.42015">
        <ele>135</ele>
        <time>2020-05-16T08:53:39.000Z</time>
      </trkpt>
      <trkpt lat="43.61113" lon="1.42001">
        <ele>135.1</ele>
        <time>2020-05-16T08:53:36.000Z</time>
      </trkpt>
      <trkpt lat="43.61113" lon="1.41989">
        <ele>134.3</ele>
        <time>2020-05-16T08:53:29.000Z</time>
      </trkpt>
      <trkpt lat="43.61106" lon="1.4198">
        <ele>134.1</ele>
        <time>2020-05-16T08:53:25.000Z</time>
      </trkpt>
      <trkpt lat="43.61103" lon="1.41968">
        <ele>134.2</ele>
        <time>2020-05-16T08:53:21.000Z</time>
      </trkpt>
      <trkpt lat="43.61099" lon="1.41955">
        <ele>134.7</ele>
        <time>2020-05-16T08:53:18.000Z</time>
      </trkpt>
      <trkpt lat="43.61094" lon="1.4194">
        <ele>135.4</ele>
        <time>2020-05-16T08:53:14.000Z</time>
      </trkpt>
      <trkpt lat="43.61091" lon="1.41927">
        <ele>135.7</ele>
        <time>2020-05-16T08:53:11.000Z</time>
      </trkpt>
      <trkpt lat="43.61087" lon="1.41911">
        <ele>136.4</ele>
        <time>2020-05-16T08:53:08.000Z</time>
      </trkpt>
      <trkpt lat="43.61083" lon="1.41897">
        <ele>137</ele>
        <time>2020-05-16T08:52:54.000Z</time>
      </trkpt>
      <trkpt lat="43.61079" lon="1.4191">
        <ele>136.7</ele>
        <time>2020-05-16T08:52:49.000Z</time>
      </trkpt>
      <trkpt lat="43.61073" lon="1.41922">
        <ele>136.3</ele>
        <time>2020-05-16T08:52:45.000Z</time>
      </trkpt>
      <trkpt lat="43.61068" lon="1.41935">
        <ele>136.3</ele>
        <time>2020-05-16T08:52:41.000Z</time>
      </trkpt>
      <trkpt lat="43.61063" lon="1.41946">
        <ele>136.3</ele>
        <time>2020-05-16T08:52:36.000Z</time>
      </trkpt>
      <trkpt lat="43.61061" lon="1.41959">
        <ele>136.2</ele>
        <time>2020-05-16T08:52:32.000Z</time>
      </trkpt>
      <trkpt lat="43.61059" lon="1.41971">
        <ele>136.1</ele>
        <time>2020-05-16T08:52:28.000Z</time>
      </trkpt>
      <trkpt lat="43.61056" lon="1.41983">
        <ele>136</ele>
        <time>2020-05-16T08:52:25.000Z</time>
      </trkpt>
      <trkpt lat="43.61051" lon="1.41996">
        <ele>135.5</ele>
        <time>2020-05-16T08:52:23.000Z</time>
      </trkpt>
      <trkpt lat="43.61045" lon="1.42007">
        <ele>135.1</ele>
        <time>2020-05-16T08:52:17.000Z</time>
      </trkpt>
      <trkpt lat="43.6104" lon="1.42022">
        <ele>135.7</ele>
        <time>2020-05-16T08:52:13.000Z</time>
      </trkpt>
      <trkpt lat="43.61036" lon="1.42035">
        <ele>136</ele>
        <time>2020-05-16T08:52:09.000Z</time>
      </trkpt>
      <trkpt lat="43.6103" lon="1.42045">
        <ele>136</ele>
        <time>2020-05-16T08:52:05.000Z</time>
      </trkpt>
      <trkpt lat="43.61025" lon="1.42055">
        <ele>135.6</ele>
        <time>2020-05-16T08:52:02.000Z</time>
      </trkpt>
      <trkpt lat="43.6102" lon="1.42067">
        <ele>135.1</ele>
        <time>2020-05-16T08:51:56.000Z</time>
      </trkpt>
      <trkpt lat="43.61014" lon="1.42076">
        <ele>134.7</ele>
        <time>2020-05-16T08:51:52.000Z</time>
      </trkpt>
      <trkpt lat="43.61006" lon="1.42086">
        <ele>134.6</ele>
        <time>2020-05-16T08:51:48.000Z</time>
      </trkpt>
      <trkpt lat="43.61002" lon="1.42099">
        <ele>135.2</ele>
        <time>2020-05-16T08:51:43.000Z</time>
      </trkpt>
      <trkpt lat="43.60998" lon="1.4211">
        <ele>135.7</ele>
        <time>2020-05-16T08:51:39.000Z</time>
      </trkpt>
      <trkpt lat="43.60994" lon="1.42123">
        <ele>135.4</ele>
        <time>2020-05-16T08:51:35.000Z</time>
      </trkpt>
      <trkpt lat="43.60991" lon="1.42137">
        <ele>135</ele>
        <time>2020-05-16T08:51:31.000Z</time>
      </trkpt>
      <trkpt lat="43.60986" lon="1.4215">
        <ele>134.9</ele>
        <time>2020-05-16T08:51:27.000Z</time>
      </trkpt>
      <trkpt lat="43.60981" lon="1.42165">
        <ele>135.2</ele>
        <time>2020-05-16T08:51:23.000Z</time>
      </trkpt>
      <trkpt lat="43.60977" lon="1.42178">
        <ele>135.4</ele>
        <time>2020-05-16T08:51:18.000Z</time>
      </trkpt>
      <trkpt lat="43.60973" lon="1.42192">
        <ele>135.9</ele>
        <time>2020-05-16T08:51:15.000Z</time>
      </trkpt>
      <trkpt lat="43.60969" lon="1.42206">
        <ele>135.2</ele>
        <time>2020-05-16T08:51:11.000Z</time>
      </trkpt>
      <trkpt lat="43.60967" lon="1.4222">
        <ele>134.7</ele>
        <time>2020-05-16T08:51:07.000Z</time>
      </trkpt>
      <trkpt lat="43.60962" lon="1.42231">
        <ele>134.3</ele>
        <time>2020-05-16T08:51:02.000Z</time>
      </trkpt>
      <trkpt lat="43.60958" lon="1.42243">
        <ele>134.4</ele>
        <time>2020-05-16T08:50:57.000Z</time>
      </trkpt>
      <trkpt lat="43.60954" lon="1.42256">
        <ele>134.8</ele>
        <time>2020-05-16T08:50:52.000Z</time>
      </trkpt>
      <trkpt lat="43.6095" lon="1.4227">
        <ele>135.4</ele>
        <time>2020-05-16T08:50:48.000Z</time>
      </trkpt>
      <trkpt lat="43.60946" lon="1.42281">
        <ele>135.8</ele>
        <time>2020-05-16T08:50:45.000Z</time>
      </trkpt>
      <trkpt lat="43.60942" lon="1.42294">
        <ele>135.2</ele>
        <time>2020-05-16T08:50:42.000Z</time>
      </trkpt>
      <trkpt lat="43.60936" lon="1.42308">
        <ele>134.4</ele>
        <time>2020-05-16T08:50:37.000Z</time>
      </trkpt>
      <trkpt lat="43.6093" lon="1.42318">
        <ele>134.2</ele>
        <time>2020-05-16T08:50:34.000Z</time>
      </trkpt>
      <trkpt lat="43.60925" lon="1.42332">
        <ele>134.6</ele>
        <time>2020-05-16T08:50:29.000Z</time>
      </trkpt>
      <trkpt lat="43.6092" lon="1.42345">
        <ele>135.2</ele>
        <time>2020-05-16T08:50:25.000Z</time>
      </trkpt>
      <trkpt lat="43.60913" lon="1.42358">
        <ele>135.5</ele>
        <time>2020-05-16T08:50:22.000Z</time>
      </trkpt>
      <trkpt lat="43.6091" lon="1.42372">
        <ele>135.3</ele>
        <time>2020-05-16T08:50:18.000Z</time>
      </trkpt>
      <trkpt lat="43.60905" lon="1.42385">
        <ele>134.7</ele>
        <time>2020-05-16T08:50:13.000Z</time>
      </trkpt>
      <trkpt lat="43.60898" lon="1.42394">
        <ele>134.4</ele>
        <time>2020-05-16T08:50:08.000Z</time>
      </trkpt>
      <trkpt lat="43.60892" lon="1.42405">
        <ele>134.9</ele>
        <time>2020-05-16T08:50:04.000Z</time>
      </trkpt>
      <trkpt lat="43.60887" lon="1.42416">
        <ele>135.7</ele>
        <time>2020-05-16T08:50:00.000Z</time>
      </trkpt>
      <trkpt lat="43.6088" lon="1.42428">
        <ele>134.7</ele>
        <time>2020-05-16T08:49:55.000Z</time>
      </trkpt>
      <trkpt lat="43.60875" lon="1.42438">
        <ele>134</ele>
        <time>2020-05-16T08:49:52.000Z</time>
      </trkpt>
      <trkpt lat="43.60865" lon="1.4245">
        <ele>132.9</ele>
        <time>2020-05-16T08:49:49.000Z</time>
      </trkpt>
      <trkpt lat="43.60861" lon="1.42462">
        <ele>133.3</ele>
        <time>2020-05-16T08:49:46.000Z</time>
      </trkpt>
      <trkpt lat="43.6086" lon="1.42477">
        <ele>134.3</ele>
        <time>2020-05-16T08:49:43.000Z</time>
      </trkpt>
      <trkpt lat="43.60856" lon="1.42488">
        <ele>134.8</ele>
        <time>2020-05-16T08:49:39.000Z</time>
      </trkpt>
      <trkpt lat="43.6085" lon="1.42498">
        <ele>134.7</ele>
        <time>2020-05-16T08:49:34.000Z</time>
      </trkpt>
      <trkpt lat="43.60846" lon="1.42511">
        <ele>134.4</ele>
        <time>2020-05-16T08:49:30.000Z</time>
      </trkpt>
      <trkpt lat="43.60842" lon="1.42526">
        <ele>133.9</ele>
        <time>2020-05-16T08:49:26.000Z</time>
      </trkpt>
      <trkpt lat="43.60836" lon="1.42536">
        <ele>133.8</ele>
        <time>2020-05-16T08:49:21.000Z</time>
      </trkpt>
      <trkpt lat="43.60833" lon="1.42555">
        <ele>134.9</ele>
        <time>2020-05-16T08:49:15.000Z</time>
      </trkpt>
      <trkpt lat="43.60831" lon="1.42568">
        <ele>135.2</ele>
        <time>2020-05-16T08:49:09.000Z</time>
      </trkpt>
      <trkpt lat="43.60827" lon="1.42582">
        <ele>135.3</ele>
        <time>2020-05-16T08:49:05.000Z</time>
      </trkpt>
      <trkpt lat="43.60821" lon="1.42594">
        <ele>134.5</ele>
        <time>2020-05-16T08:49:02.000Z</time>
      </trkpt>
      <trkpt lat="43.60818" lon="1.42606">
        <ele>134</ele>
        <time>2020-05-16T08:48:58.000Z</time>
      </trkpt>
      <trkpt lat="43.60813" lon="1.42617">
        <ele>133.9</ele>
        <time>2020-05-16T08:48:55.000Z</time>
      </trkpt>
      <trkpt lat="43.60809" lon="1.42628">
        <ele>134.4</ele>
        <time>2020-05-16T08:48:52.000Z</time>
      </trkpt>
      <trkpt lat="43.60802" lon="1.42641">
        <ele>134.8</ele>
        <time>2020-05-16T08:48:48.000Z</time>
      </trkpt>
      <trkpt lat="43.60798" lon="1.42654">
        <ele>134.9</ele>
        <time>2020-05-16T08:48:42.000Z</time>
      </trkpt>
      <trkpt lat="43.60793" lon="1.42667">
        <ele>134.6</ele>
        <time>2020-05-16T08:48:37.000Z</time>
      </trkpt>
      <trkpt lat="43.60787" lon="1.42679">
        <ele>134</ele>
        <time>2020-05-16T08:48:33.000Z</time>
      </trkpt>
      <trkpt lat="43.6078" lon="1.42691">
        <ele>133.2</ele>
        <time>2020-05-16T08:48:29.000Z</time>
      </trkpt>
      <trkpt lat="43.60773" lon="1.42701">
        <ele>133.7</ele>
        <time>2020-05-16T08:48:25.000Z</time>
      </trkpt>
      <trkpt lat="43.60768" lon="1.42713">
        <ele>134.1</ele>
        <time>2020-05-16T08:48:22.000Z</time>
      </trkpt>
      <trkpt lat="43.60764" lon="1.42726">
        <ele>134.1</ele>
        <time>2020-05-16T08:48:18.000Z</time>
      </trkpt>
      <trkpt lat="43.6076" lon="1.4274">
        <ele>134</ele>
        <time>2020-05-16T08:48:14.000Z</time>
      </trkpt>
      <trkpt lat="43.60756" lon="1.42753">
        <ele>133.7</ele>
        <time>2020-05-16T08:48:09.000Z</time>
      </trkpt>
      <trkpt lat="43.60755" lon="1.42767">
        <ele>134</ele>
        <time>2020-05-16T08:48:04.000Z</time>
      </trkpt>
      <trkpt lat="43.60751" lon="1.42779">
        <ele>134.2</ele>
        <time>2020-05-16T08:47:59.000Z</time>
      </trkpt>
      <trkpt lat="43.60745" lon="1.42792">
        <ele>135.2</ele>
        <time>2020-05-16T08:47:55.000Z</time>
      </trkpt>
      <trkpt lat="43.6074" lon="1.42804">
        <ele>135.5</ele>
        <time>2020-05-16T08:47:52.000Z</time>
      </trkpt>
      <trkpt lat="43.60736" lon="1.42816">
        <ele>135</ele>
        <time>2020-05-16T08:47:50.000Z</time>
      </trkpt>
      <trkpt lat="43.60731" lon="1.42827">
        <ele>134.3</ele>
        <time>2020-05-16T08:47:46.000Z</time>
      </trkpt>
      <trkpt lat="43.60726" lon="1.42839">
        <ele>133.7</ele>
        <time>2020-05-16T08:47:41.000Z</time>
      </trkpt>
      <trkpt lat="43.60723" lon="1.42852">
        <ele>133.7</ele>
        <time>2020-05-16T08:47:35.000Z</time>
      </trkpt>
      <trkpt lat="43.60722" lon="1.42867">
        <ele>134.4</ele>
        <time>2020-05-16T08:47:31.000Z</time>
      </trkpt>
      <trkpt lat="43.60719" lon="1.42879">
        <ele>135.1</ele>
        <time>2020-05-16T08:47:27.000Z</time>
      </trkpt>
      <trkpt lat="43.60714" lon="1.42892">
        <ele>135.1</ele>
        <time>2020-05-16T08:47:24.000Z</time>
      </trkpt>
    </trkseg>
  </trk>
</gpx>